Wetterdaten: Freitag, 12.11.2021
Datum Zeit Temp. Aussen Temp. o. S. Temp +5cm Feuchte Auss Luftdruck Regen Sonnenschein Regendauer Solar Windben Empfang
12.11.2021 00:00 4,5 C 3,3 C 1,7 C 92 % 1023,6 hPa 0,0 l/m 0 min 0 min 0 W/m 3,2 km/h (1 Bft) 97,87 %
12.11.2021 00:02 4,5 C 3,3 C 1,7 C 92 % 1023,6 hPa 0,0 l/m 0 min 0 min 0 W/m 0,0 km/h (0 Bft) 9,09 %
12.11.2021 00:04 4,5 C 3,3 C 1,7 C 92 % 1023,6 hPa 0,0 l/m 0 min 0 min 0 W/m 0,0 km/h (0 Bft) 100,00 %
12.11.2021 00:08 4,4 C 3,3 C 1,7 C 92 % 1023,6 hPa 0,0 l/m 0 min 0 min 0 W/m 0,0 km/h (0 Bft) 96,81 %
12.11.2021 00:10 4,4 C 2,8 C 1,7 C 91 % 1023,6 hPa 0,0 l/m 0 min 0 min 0 W/m 0,0 km/h (0 Bft) 97,87 %
12.11.2021 00:12 4,3 C 2,8 C 1,7 C 91 % 1023,6 hPa 0,0 l/m 0 min 0 min 0 W/m 0,0 km/h (0 Bft) 97,87 %
12.11.2021 00:14 4,3 C 2,8 C 1,7 C 91 % 1023,6 hPa 0,0 l/m 0 min 0 min 0 W/m 0,0 km/h (0 Bft) 97,87 %
12.11.2021 00:16 4,3 C 2,8 C 1,1 C 92 % 1023,6 hPa 0,0 l/m 0 min 0 min 0 W/m 0,0 km/h (0 Bft) 97,83 %
12.11.2021 00:18 4,2 C 2,8 C 1,1 C 92 % 1023,5 hPa 0,0 l/m 0 min 0 min 0 W/m 0,0 km/h (0 Bft) 97,87 %
12.11.2021 00:20 4,1 C 2,8 C 1,1 C 92 % 1023,5 hPa 0,0 l/m 0 min 0 min 0 W/m 0,0 km/h (0 Bft) 97,87 %
12.11.2021 00:22 4,1 C 2,2 C 1,1 C 92 % 1023,5 hPa 0,0 l/m 0 min 0 min 0 W/m 0,0 km/h (0 Bft) 97,87 %
12.11.2021 00:24 4,0 C 2,2 C 1,1 C 92 % 1023,5 hPa 0,0 l/m 0 min 0 min 0 W/m 0,0 km/h (0 Bft) 95,74 %
12.11.2021 00:26 4,0 C 2,2 C 1,1 C 91 % 1023,5 hPa 0,0 l/m 0 min 0 min 0 W/m 0,0 km/h (0 Bft) 93,48 %
12.11.2021 00:28 3,9 C 2,2 C 1,1 C 91 % 1023,5 hPa 0,0 l/m 0 min 0 min 0 W/m 0,0 km/h (0 Bft) 97,87 %
12.11.2021 00:30 3,9 C 2,2 C 1,1 C 92 % 1023,5 hPa 0,0 l/m 0 min 0 min 0 W/m 0,0 km/h (0 Bft) 95,74 %
12.11.2021 00:32 3,8 C 2,2 C 1,1 C 92 % 1023,5 hPa 0,0 l/m 0 min 0 min 0 W/m 0,0 km/h (0 Bft) 95,74 %
12.11.2021 00:34 3,8 C 2,2 C 1,1 C 92 % 1023,5 hPa 0,0 l/m 0 min 0 min 0 W/m 0,0 km/h (0 Bft) 97,87 %
12.11.2021 00:36 3,8 C 2,2 C 1,1 C 92 % 1023,6 hPa 0,0 l/m 0 min 0 min 0 W/m 0,0 km/h (0 Bft) 100,00 %
12.11.2021 00:38 3,7 C 2,2 C 1,1 C 92 % 1023,6 hPa 0,0 l/m 0 min 0 min 0 W/m 0,0 km/h (0 Bft) 100,00 %
12.11.2021 00:40 3,7 C 2,2 C 1,1 C 92 % 1023,5 hPa 0,0 l/m 0 min 0 min 0 W/m 0,0 km/h (0 Bft) 95,65 %
12.11.2021 00:42 3,7 C 2,2 C 1,1 C 92 % 1023,5 hPa 0,0 l/m 0 min 0 min 0 W/m 3,2 km/h (1 Bft) 100,00 %
12.11.2021 00:44 3,6 C 2,8 C 1,1 C 92 % 1023,5 hPa 0,0 l/m 0 min 0 min 0 W/m 0,0 km/h (0 Bft) 97,87 %
12.11.2021 00:46 3,6 C 2,8 C 1,1 C 92 % 1023,6 hPa 0,0 l/m 0 min 0 min 0 W/m 3,2 km/h (1 Bft) 97,87 %
12.11.2021 00:48 3,6 C 2,2 C 1,1 C 92 % 1023,5 hPa 0,0 l/m 0 min 0 min 0 W/m 0,0 km/h (0 Bft) 97,87 %
12.11.2021 00:50 3,6 C 2,2 C 1,1 C 92 % 1023,5 hPa 0,0 l/m 0 min 0 min 0 W/m 0,0 km/h (0 Bft) 97,83 %
12.11.2021 00:52 3,5 C 2,2 C 1,1 C 92 % 1023,5 hPa 0,0 l/m 0 min 0 min 0 W/m 0,0 km/h (0 Bft) 93,62 %
12.11.2021 00:54 3,5 C 2,2 C 1,1 C 92 % 1023,4 hPa 0,0 l/m 0 min 0 min 0 W/m 0,0 km/h (0 Bft) 97,87 %
12.11.2021 00:56 3,5 C 2,2 C 1,1 C 92 % 1023,5 hPa 0,0 l/m 0 min 0 min 0 W/m 0,0 km/h (0 Bft) 95,74 %
12.11.2021 00:58 3,4 C 2,2 C 1,1 C 92 % 1023,4 hPa 0,0 l/m 0 min 0 min 0 W/m 3,2 km/h (1 Bft) 97,87 %
12.11.2021 01:00 3,4 C 2,2 C 1,1 C 92 % 1023,5 hPa 0,0 l/m 0 min 0 min 0 W/m 3,2 km/h (1 Bft) 94,74 %
12.11.2021 01:02 3,4 C 2,2 C 1,1 C 92 % 1023,5 hPa 0,0 l/m 0 min 0 min 0 W/m 3,2 km/h (1 Bft) 97,87 %
12.11.2021 01:04 3,4 C 2,2 C 0,6 C 92 % 1023,4 hPa 0,0 l/m 0 min 0 min 0 W/m 3,2 km/h (1 Bft) 95,65 %
12.11.2021 01:06 3,3 C 2,2 C 0,6 C 92 % 1023,4 hPa 0,0 l/m 0 min 0 min 0 W/m 3,2 km/h (1 Bft) 95,74 %
12.11.2021 01:08 3,3 C 2,2 C 0,6 C 92 % 1023,4 hPa 0,0 l/m 0 min 0 min 0 W/m 6,4 km/h (2 Bft) 95,74 %
12.11.2021 01:10 3,3 C 2,2 C 0,6 C 92 % 1023,3 hPa 0,0 l/m 0 min 0 min 0 W/m 3,2 km/h (1 Bft) 93,62 %
12.11.2021 01:12 3,2 C 2,2 C 0,6 C 92 % 1023,3 hPa 0,0 l/m 0 min 0 min 0 W/m 6,4 km/h (2 Bft) 100,00 %
12.11.2021 01:18 3,1 C 2,2 C 0,6 C 92 % 1023,3 hPa 0,0 l/m 0 min 0 min 0 W/m 12,9 km/h (3 Bft) 100,00 %
12.11.2021 01:20 3,1 C 2,2 C 0,6 C 92 % 1023,2 hPa 0,0 l/m 0 min 0 min 0 W/m 6,4 km/h (2 Bft) 95,74 %
12.11.2021 01:22 3,1 C 2,2 C 0,6 C 93 % 1023,2 hPa 0,0 l/m 0 min 0 min 0 W/m 6,4 km/h (2 Bft) 100,00 %
12.11.2021 01:27 3,0 C 2,2 C 1,1 C 93 % 1023,3 hPa 0,0 l/m 0 min 0 min 0 W/m 6,4 km/h (2 Bft) 100,00 %
12.11.2021 01:28 3,0 C 2,2 C 1,1 C 93 % 1023,3 hPa 0,0 l/m 0 min 0 min 0 W/m 3,2 km/h (1 Bft) 100,00 %
12.11.2021 01:30 3,0 C 2,2 C 1,1 C 93 % 1023,2 hPa 0,0 l/m 0 min 0 min 0 W/m 3,2 km/h (1 Bft) 97,87 %
12.11.2021 01:32 3,0 C 2,2 C 1,1 C 93 % 1023,3 hPa 0,0 l/m 0 min 0 min 0 W/m 3,2 km/h (1 Bft) 97,87 %
12.11.2021 01:34 3,0 C 2,2 C 1,1 C 93 % 1023,2 hPa 0,0 l/m 0 min 0 min 0 W/m 6,4 km/h (2 Bft) 97,87 %
12.11.2021 01:36 3,0 C 2,2 C 1,1 C 93 % 1023,3 hPa 0,0 l/m 0 min 0 min 0 W/m 3,2 km/h (1 Bft) 97,87 %
12.11.2021 01:38 3,0 C 2,2 C 1,1 C 93 % 1023,3 hPa 0,0 l/m 0 min 0 min 0 W/m 3,2 km/h (1 Bft) 97,87 %
12.11.2021 01:40 2,9 C 2,2 C 1,1 C 93 % 1023,2 hPa 0,0 l/m 0 min 0 min 0 W/m 3,2 km/h (1 Bft) 100,00 %
12.11.2021 01:42 2,9 C 2,2 C 1,1 C 93 % 1023,3 hPa 0,0 l/m 0 min 0 min 0 W/m 6,4 km/h (2 Bft) 100,00 %
12.11.2021 01:44 2,9 C 2,2 C 1,1 C 93 % 1023,3 hPa 0,0 l/m 0 min 0 min 0 W/m 6,4 km/h (2 Bft) 100,00 %
12.11.2021 01:46 2,9 C 2,2 C 1,1 C 93 % 1023,3 hPa 0,0 l/m 0 min 0 min 0 W/m 6,4 km/h (2 Bft) 100,00 %
12.11.2021 01:48 2,9 C 2,2 C 1,1 C 93 % 1023,3 hPa 0,0 l/m 0 min 0 min 0 W/m 6,4 km/h (2 Bft) 100,00 %
12.11.2021 01:50 2,8 C 2,2 C 1,1 C 93 % 1023,3 hPa 0,0 l/m 0 min 0 min 0 W/m 6,4 km/h (2 Bft) 100,00 %
12.11.2021 01:52 2,8 C 2,2 C 1,1 C 93 % 1023,3 hPa 0,0 l/m 0 min 0 min 0 W/m 3,2 km/h (1 Bft) 100,00 %
12.11.2021 01:54 2,8 C 2,2 C 1,1 C 93 % 1023,3 hPa 0,0 l/m 0 min 0 min 0 W/m 3,2 km/h (1 Bft) 97,87 %
12.11.2021 01:56 2,8 C 2,2 C 1,1 C 93 % 1023,3 hPa 0,0 l/m 0 min 0 min 0 W/m 3,2 km/h (1 Bft) 100,00 %
12.11.2021 01:58 2,8 C 2,2 C 1,1 C 93 % 1023,3 hPa 0,0 l/m 0 min 0 min 0 W/m 6,4 km/h (2 Bft) 100,00 %
12.11.2021 02:00 2,8 C 2,2 C 1,1 C 93 % 1023,2 hPa 0,0 l/m 0 min 0 min 0 W/m 3,2 km/h (1 Bft) 100,00 %
12.11.2021 02:02 2,8 C 2,2 C 1,1 C 93 % 1023,3 hPa 0,0 l/m 0 min 0 min 0 W/m 3,2 km/h (1 Bft) 100,00 %
12.11.2021 02:04 2,8 C 2,2 C 1,1 C 93 % 1023,2 hPa 0,0 l/m 0 min 0 min 0 W/m 3,2 km/h (1 Bft) 100,00 %
12.11.2021 02:06 2,8 C 2,2 C 1,1 C 93 % 1023,2 hPa 0,0 l/m 0 min 0 min 0 W/m 3,2 km/h (1 Bft) 97,87 %
12.11.2021 02:08 2,8 C 2,2 C 1,1 C 93 % 1023,2 hPa 0,0 l/m 0 min 0 min 0 W/m 3,2 km/h (1 Bft) 100,00 %
12.11.2021 02:10 2,7 C 2,2 C 1,1 C 93 % 1023,2 hPa 0,0 l/m 0 min 0 min 0 W/m 3,2 km/h (1 Bft) 100,00 %
12.11.2021 02:12 2,7 C 1,7 C 0,6 C 93 % 1023,2 hPa 0,0 l/m 0 min 0 min 0 W/m 0,0 km/h (0 Bft) 100,00 %
12.11.2021 02:14 2,7 C 1,7 C 0,6 C 94 % 1023,2 hPa 0,0 l/m 0 min 0 min 0 W/m 0,0 km/h (0 Bft) 100,00 %
12.11.2021 02:16 2,7 C 1,7 C 0,6 C 94 % 1023,2 hPa 0,0 l/m 0 min 0 min 0 W/m 6,4 km/h (2 Bft) 100,00 %
12.11.2021 02:18 2,7 C 1,7 C 0,6 C 94 % 1023,2 hPa 0,0 l/m 0 min 0 min 0 W/m 3,2 km/h (1 Bft) 100,00 %
12.11.2021 02:20 2,6 C 1,7 C 0,6 C 94 % 1023,2 hPa 0,0 l/m 0 min 0 min 0 W/m 6,4 km/h (2 Bft) 100,00 %
12.11.2021 02:22 2,6 C 1,7 C 0,6 C 94 % 1023,2 hPa 0,0 l/m 0 min 0 min 0 W/m 6,4 km/h (2 Bft) 97,87 %
12.11.2021 02:24 2,6 C 1,7 C 0,6 C 94 % 1023,2 hPa 0,0 l/m 0 min 0 min 0 W/m 3,2 km/h (1 Bft) 100,00 %
12.11.2021 02:26 2,6 C 1,7 C 0,6 C 94 % 1023,2 hPa 0,0 l/m 0 min 0 min 0 W/m 6,4 km/h (2 Bft) 100,00 %
12.11.2021 02:28 2,6 C 1,7 C 0,6 C 94 % 1023,2 hPa 0,0 l/m 0 min 0 min 0 W/m 6,4 km/h (2 Bft) 97,87 %
12.11.2021 02:30 2,6 C 2,2 C 0,6 C 94 % 1023,1 hPa 0,0 l/m 0 min 0 min 0 W/m 6,4 km/h (2 Bft) 100,00 %
12.11.2021 02:32 2,6 C 2,2 C 0,6 C 94 % 1023,0 hPa 0,0 l/m 0 min 0 min 0 W/m 6,4 km/h (2 Bft) 93,62 %
12.11.2021 02:34 2,6 C 2,2 C 1,1 C 94 % 1023,0 hPa 0,0 l/m 0 min 0 min 0 W/m 12,9 km/h (3 Bft) 97,87 %
12.11.2021 02:36 2,6 C 2,2 C 1,1 C 94 % 1023,0 hPa 0,0 l/m 0 min 0 min 0 W/m 16,1 km/h (3 Bft) 97,87 %
12.11.2021 02:38 2,6 C 2,2 C 1,1 C 94 % 1022,9 hPa 0,0 l/m 0 min 0 min 0 W/m 6,4 km/h (2 Bft) 95,65 %
12.11.2021 02:40 2,6 C 2,2 C 1,1 C 94 % 1022,8 hPa 0,0 l/m 0 min 0 min 0 W/m 3,2 km/h (1 Bft) 76,60 %
12.11.2021 02:42 2,7 C 2,2 C 1,1 C 94 % 1022,8 hPa 0,0 l/m 0 min 0 min 0 W/m 6,4 km/h (2 Bft) 76,74 %
12.11.2021 02:44 2,6 C 2,2 C 1,1 C 94 % 1022,8 hPa 0,0 l/m 0 min 0 min 0 W/m 12,9 km/h (3 Bft) 97,87 %
12.11.2021 02:46 2,6 C 2,2 C 1,1 C 94 % 1022,8 hPa 0,0 l/m 0 min 0 min 0 W/m 6,4 km/h (2 Bft) 97,87 %
12.11.2021 02:48 2,7 C 2,2 C 1,1 C 94 % 1022,8 hPa 0,0 l/m 0 min 0 min 0 W/m 6,4 km/h (2 Bft) 97,87 %
12.11.2021 02:50 2,6 C 2,2 C 1,1 C 94 % 1022,7 hPa 0,0 l/m 0 min 0 min 0 W/m 6,4 km/h (2 Bft) 95,65 %
12.11.2021 02:52 2,6 C 2,2 C 1,1 C 94 % 1022,7 hPa 0,0 l/m 0 min 0 min 0 W/m 12,9 km/h (3 Bft) 95,74 %
12.11.2021 02:54 2,6 C 2,2 C 1,1 C 94 % 1022,7 hPa 0,0 l/m 0 min 0 min 0 W/m 12,9 km/h (3 Bft) 97,87 %
12.11.2021 02:56 2,6 C 2,2 C 1,1 C 94 % 1022,6 hPa 0,0 l/m 0 min 0 min 0 W/m 12,9 km/h (3 Bft) 97,87 %
12.11.2021 02:58 2,6 C 2,2 C 1,1 C 94 % 1022,6 hPa 0,0 l/m 0 min 0 min 0 W/m 3,2 km/h (1 Bft) 97,87 %
12.11.2021 03:00 2,6 C 2,2 C 1,1 C 94 % 1022,7 hPa 0,0 l/m 0 min 0 min 0 W/m 6,4 km/h (2 Bft) 95,74 %
12.11.2021 03:02 2,6 C 2,2 C 1,1 C 94 % 1022,6 hPa 0,0 l/m 0 min 0 min 0 W/m 12,9 km/h (3 Bft) 100,00 %
12.11.2021 03:04 2,6 C 2,2 C 1,1 C 94 % 1022,6 hPa 0,0 l/m 0 min 0 min 0 W/m 6,4 km/h (2 Bft) 97,87 %
12.11.2021 03:06 2,6 C 2,2 C 1,1 C 94 % 1022,5 hPa 0,0 l/m 0 min 0 min 0 W/m 6,4 km/h (2 Bft) 100,00 %
12.11.2021 03:08 2,6 C 2,2 C 0,6 C 94 % 1022,5 hPa 0,0 l/m 0 min 0 min 0 W/m 6,4 km/h (2 Bft) 100,00 %
12.11.2021 03:10 2,6 C 2,2 C 0,6 C 94 % 1022,5 hPa 0,0 l/m 0 min 0 min 0 W/m 12,9 km/h (3 Bft) 100,00 %
12.11.2021 03:12 2,6 C 1,7 C 0,6 C 94 % 1022,4 hPa 0,0 l/m 0 min 0 min 0 W/m 12,9 km/h (3 Bft) 95,74 %
12.11.2021 03:14 2,5 C 1,7 C 0,6 C 94 % 1022,4 hPa 0,0 l/m 0 min 0 min 0 W/m 6,4 km/h (2 Bft) 95,65 %
12.11.2021 03:16 2,5 C 1,7 C 0,6 C 94 % 1022,4 hPa 0,0 l/m 0 min 0 min 0 W/m 12,9 km/h (3 Bft) 95,74 %
12.11.2021 03:18 2,5 C 1,7 C 0,6 C 94 % 1022,4 hPa 0,0 l/m 0 min 0 min 0 W/m 6,4 km/h (2 Bft) 93,62 %
12.11.2021 03:20 2,5 C 1,7 C 0,6 C 95 % 1022,4 hPa 0,0 l/m 0 min 0 min 0 W/m 6,4 km/h (2 Bft) 95,74 %
12.11.2021 03:22 2,5 C 1,7 C 0,6 C 95 % 1022,4 hPa 0,0 l/m 0 min 0 min 0 W/m 12,9 km/h (3 Bft) 91,49 %
12.11.2021 03:24 2,4 C 1,7 C 0,6 C 95 % 1022,3 hPa 0,0 l/m 0 min 0 min 0 W/m 6,4 km/h (2 Bft) 93,62 %
12.11.2021 03:26 2,4 C 1,7 C 0,6 C 94 % 1022,2 hPa 0,0 l/m 0 min 0 min 0 W/m 12,9 km/h (3 Bft) 95,65 %
12.11.2021 03:28 2,4 C 1,7 C 0,6 C 94 % 1022,3 hPa 0,0 l/m 0 min 0 min 0 W/m 6,4 km/h (2 Bft) 95,74 %
12.11.2021 03:30 2,4 C 1,7 C 0,6 C 94 % 1022,3 hPa 0,0 l/m 0 min 0 min 0 W/m 3,2 km/h (1 Bft) 95,74 %
12.11.2021 03:32 2,4 C 1,7 C 0,6 C 94 % 1022,3 hPa 0,0 l/m 0 min 0 min 0 W/m 3,2 km/h (1 Bft) 53,19 %
12.11.2021 03:34 2,3 C 1,7 C 0,6 C 94 % 1022,3 hPa 0,0 l/m 0 min 0 min 0 W/m 6,4 km/h (2 Bft) 95,74 %
12.11.2021 03:36 2,3 C 1,7 C 0,6 C 94 % 1022,3 hPa 0,0 l/m 0 min 0 min 0 W/m 3,2 km/h (1 Bft) 95,74 %
12.11.2021 03:38 2,3 C 1,7 C 0,6 C 94 % 1022,2 hPa 0,0 l/m 0 min 0 min 0 W/m 0,0 km/h (0 Bft) 95,65 %
12.11.2021 03:40 2,3 C 1,7 C 0,6 C 95 % 1022,2 hPa 0,0 l/m 0 min 0 min 0 W/m 12,9 km/h (3 Bft) 93,62 %
12.11.2021 03:42 2,3 C 1,7 C 0,6 C 95 % 1022,1 hPa 0,0 l/m 0 min 0 min 0 W/m 6,4 km/h (2 Bft) 95,74 %
12.11.2021 03:44 2,2 C 1,7 C 0,6 C 95 % 1022,1 hPa 0,0 l/m 0 min 0 min 0 W/m 3,2 km/h (1 Bft) 95,74 %
12.11.2021 03:46 2,2 C 1,7 C 0,6 C 95 % 1022,1 hPa 0,0 l/m 0 min 0 min 0 W/m 6,4 km/h (2 Bft) 95,74 %
12.11.2021 03:48 2,2 C 1,7 C 0,6 C 95 % 1022,1 hPa 0,0 l/m 0 min 0 min 0 W/m 6,4 km/h (2 Bft) 95,65 %
12.11.2021 03:50 2,1 C 1,7 C 0,6 C 95 % 1022,1 hPa 0,0 l/m 0 min 0 min 0 W/m 16,1 km/h (3 Bft) 93,62 %
12.11.2021 03:52 2,1 C 1,7 C 0,6 C 95 % 1022,1 hPa 0,0 l/m 0 min 0 min 0 W/m 6,4 km/h (2 Bft) 95,74 %
12.11.2021 03:54 2,1 C 1,7 C 0,6 C 95 % 1022,1 hPa 0,0 l/m 0 min 0 min 0 W/m 6,4 km/h (2 Bft) 97,87 %
12.11.2021 03:56 2,1 C 1,7 C 0,6 C 95 % 1022,0 hPa 0,0 l/m 0 min 0 min 0 W/m 6,4 km/h (2 Bft) 95,74 %
12.11.2021 03:58 2,1 C 1,7 C 0,6 C 95 % 1022,0 hPa 0,0 l/m 0 min 0 min 0 W/m 12,9 km/h (3 Bft) 97,87 %
12.11.2021 04:00 2,1 C 1,7 C 0,6 C 95 % 1022,0 hPa 0,0 l/m 0 min 0 min 0 W/m 6,4 km/h (2 Bft) 95,65 %
12.11.2021 04:02 2,1 C 1,7 C 0,6 C 95 % 1022,0 hPa 0,0 l/m 0 min 0 min 0 W/m 12,9 km/h (3 Bft) 96,97 %
12.11.2021 04:07 2,1 C 1,7 C 0,6 C 95 % 1021,9 hPa 0,0 l/m 0 min 0 min 0 W/m 12,9 km/h (3 Bft) 96,97 %
12.11.2021 04:08 2,1 C 1,7 C 0,6 C 95 % 1021,9 hPa 0,0 l/m 0 min 0 min 0 W/m 6,4 km/h (2 Bft) 100,00 %
12.11.2021 04:10 2,1 C 1,7 C 0,6 C 95 % 1021,8 hPa 0,0 l/m 0 min 0 min 0 W/m 6,4 km/h (2 Bft) 97,87 %
12.11.2021 04:12 2,1 C 1,7 C 0,6 C 95 % 1021,8 hPa 0,0 l/m 0 min 0 min 0 W/m 16,1 km/h (3 Bft) 100,00 %
12.11.2021 04:14 2,0 C 1,7 C 0,6 C 95 % 1021,8 hPa 0,0 l/m 0 min 0 min 0 W/m 16,1 km/h (3 Bft) 93,62 %
12.11.2021 04:16 2,0 C 1,1 C 0,6 C 95 % 1021,8 hPa 0,0 l/m 0 min 0 min 0 W/m 12,9 km/h (3 Bft) 97,87 %
12.11.2021 04:18 2,0 C 1,1 C 0,6 C 95 % 1021,8 hPa 0,0 l/m 0 min 0 min 0 W/m 6,4 km/h (2 Bft) 97,87 %
12.11.2021 04:20 2,0 C 1,1 C 0,6 C 95 % 1021,8 hPa 0,0 l/m 0 min 0 min 0 W/m 6,4 km/h (2 Bft) 97,87 %
12.11.2021 04:22 2,0 C 1,1 C 0,6 C 95 % 1021,8 hPa 0,0 l/m 0 min 0 min 0 W/m 6,4 km/h (2 Bft) 95,74 %
12.11.2021 04:24 2,0 C 1,1 C 0,6 C 95 % 1021,8 hPa 0,0 l/m 0 min 0 min 0 W/m 6,4 km/h (2 Bft) 95,74 %
12.11.2021 04:26 1,9 C 1,1 C 0,6 C 95 % 1021,8 hPa 0,0 l/m 0 min 0 min 0 W/m 6,4 km/h (2 Bft) 95,65 %
12.11.2021 04:28 1,9 C 1,1 C 0,6 C 95 % 1021,8 hPa 0,0 l/m 0 min 0 min 0 W/m 9,7 km/h (2 Bft) 97,87 %
12.11.2021 04:30 1,9 C 1,1 C 0,6 C 95 % 1021,7 hPa 0,0 l/m 0 min 0 min 0 W/m 12,9 km/h (3 Bft) 97,87 %
12.11.2021 04:32 1,9 C 1,1 C 0,6 C 95 % 1021,7 hPa 0,0 l/m 0 min 0 min 0 W/m 6,4 km/h (2 Bft) 95,74 %
12.11.2021 04:34 1,9 C 1,1 C 0,0 C 95 % 1021,7 hPa 0,0 l/m 0 min 0 min 0 W/m 6,4 km/h (2 Bft) 97,87 %
12.11.2021 04:36 1,8 C 1,1 C 0,0 C 95 % 1021,8 hPa 0,0 l/m 0 min 0 min 0 W/m 12,9 km/h (3 Bft) 97,87 %
12.11.2021 04:38 1,8 C 1,1 C 0,0 C 95 % 1021,8 hPa 0,0 l/m 0 min 0 min 0 W/m 12,9 km/h (3 Bft) 97,83 %
12.11.2021 04:40 1,8 C 1,1 C 0,0 C 95 % 1021,9 hPa 0,0 l/m 0 min 0 min 0 W/m 12,9 km/h (3 Bft) 97,87 %
12.11.2021 04:42 1,8 C 1,1 C 0,0 C 95 % 1021,9 hPa 0,0 l/m 0 min 0 min 0 W/m 6,4 km/h (2 Bft) 95,74 %
12.11.2021 04:44 1,7 C 1,1 C 0,0 C 95 % 1021,8 hPa 0,0 l/m 0 min 0 min 0 W/m 6,4 km/h (2 Bft) 97,87 %
12.11.2021 04:46 1,7 C 1,1 C 0,0 C 95 % 1021,8 hPa 0,0 l/m 0 min 0 min 0 W/m 6,4 km/h (2 Bft) 100,00 %
12.11.2021 04:48 1,7 C 1,1 C 0,0 C 95 % 1021,9 hPa 0,0 l/m 0 min 0 min 0 W/m 16,1 km/h (3 Bft) 100,00 %
12.11.2021 04:50 1,7 C 1,1 C 0,0 C 95 % 1021,8 hPa 0,0 l/m 0 min 0 min 0 W/m 12,9 km/h (3 Bft) 100,00 %
12.11.2021 04:52 1,7 C 1,1 C 0,0 C 95 % 1021,8 hPa 0,0 l/m 0 min 0 min 0 W/m 12,9 km/h (3 Bft) 100,00 %
12.11.2021 04:54 1,8 C 1,1 C 0,0 C 95 % 1021,8 hPa 0,0 l/m 0 min 0 min 0 W/m 16,1 km/h (3 Bft) 100,00 %
12.11.2021 04:56 1,8 C 1,1 C 0,0 C 95 % 1021,7 hPa 0,0 l/m 0 min 0 min 0 W/m 12,9 km/h (3 Bft) 100,00 %
12.11.2021 04:58 1,8 C 1,1 C 0,0 C 95 % 1021,7 hPa 0,0 l/m 0 min 0 min 0 W/m 19,3 km/h (3 Bft) 100,00 %
12.11.2021 05:00 1,8 C 1,1 C 0,6 C 95 % 1021,7 hPa 0,0 l/m 0 min 0 min 0 W/m 12,9 km/h (3 Bft) 100,00 %
12.11.2021 05:02 1,8 C 1,1 C 0,6 C 95 % 1021,7 hPa 0,0 l/m 0 min 0 min 0 W/m 12,9 km/h (3 Bft) 100,00 %
12.11.2021 05:04 1,8 C 1,1 C 0,6 C 95 % 1021,7 hPa 0,0 l/m 0 min 0 min 0 W/m 12,9 km/h (3 Bft) 100,00 %
12.11.2021 05:06 1,9 C 1,1 C 0,6 C 95 % 1021,7 hPa 0,0 l/m 0 min 0 min 0 W/m 12,9 km/h (3 Bft) 100,00 %
12.11.2021 05:08 1,9 C 1,1 C 0,6 C 95 % 1021,7 hPa 0,0 l/m 0 min 0 min 0 W/m 12,9 km/h (3 Bft) 100,00 %
12.11.2021 05:10 1,9 C 1,1 C 0,6 C 95 % 1021,8 hPa 0,0 l/m 0 min 0 min 0 W/m 12,9 km/h (3 Bft) 100,00 %
12.11.2021 05:12 1,9 C 1,1 C 0,6 C 95 % 1021,8 hPa 0,0 l/m 0 min 0 min 0 W/m 16,1 km/h (3 Bft) 100,00 %
12.11.2021 05:14 1,9 C 1,1 C 0,6 C 95 % 1021,8 hPa 0,0 l/m 0 min 0 min 0 W/m 6,4 km/h (2 Bft) 100,00 %
12.11.2021 05:16 1,9 C 1,7 C 0,6 C 95 % 1021,8 hPa 0,0 l/m 0 min 0 min 0 W/m 12,9 km/h (3 Bft) 100,00 %
12.11.2021 05:18 2,0 C 1,7 C 0,6 C 95 % 1021,8 hPa 0,0 l/m 0 min 0 min 0 W/m 12,9 km/h (3 Bft) 100,00 %
12.11.2021 05:20 2,0 C 1,7 C 0,6 C 95 % 1021,9 hPa 0,0 l/m 0 min 0 min 0 W/m 12,9 km/h (3 Bft) 100,00 %
12.11.2021 05:22 2,0 C 1,7 C 0,6 C 95 % 1021,9 hPa 0,0 l/m 0 min 0 min 0 W/m 16,1 km/h (3 Bft) 97,87 %
12.11.2021 05:24 2,0 C 1,7 C 0,6 C 96 % 1021,9 hPa 0,2 l/m 0 min 0 min 0 W/m 12,9 km/h (3 Bft) 97,87 %
12.11.2021 05:26 2,0 C 1,7 C 0,6 C 96 % 1021,8 hPa 0,0 l/m 0 min 0 min 0 W/m 6,4 km/h (2 Bft) 100,00 %
12.11.2021 05:28 2,1 C 1,7 C 0,6 C 96 % 1021,8 hPa 0,0 l/m 0 min 0 min 0 W/m 6,4 km/h (2 Bft) 97,87 %
12.11.2021 05:30 2,1 C 1,7 C 0,6 C 96 % 1021,8 hPa 0,0 l/m 0 min 0 min 0 W/m 12,9 km/h (3 Bft) 100,00 %
12.11.2021 05:32 2,1 C 1,7 C 0,6 C 95 % 1021,8 hPa 0,0 l/m 0 min 0 min 0 W/m 12,9 km/h (3 Bft) 97,83 %
12.11.2021 05:34 2,1 C 1,7 C 0,6 C 96 % 1021,7 hPa 0,0 l/m 0 min 0 min 0 W/m 6,4 km/h (2 Bft) 97,87 %
12.11.2021 05:36 2,1 C 1,7 C 0,6 C 96 % 1021,6 hPa 0,0 l/m 0 min 0 min 0 W/m 16,1 km/h (3 Bft) 97,87 %
12.11.2021 05:38 2,2 C 1,7 C 0,6 C 96 % 1021,6 hPa 0,0 l/m 0 min 0 min 0 W/m 12,9 km/h (3 Bft) 97,87 %
12.11.2021 05:40 2,2 C 1,7 C 0,6 C 96 % 1021,6 hPa 0,0 l/m 0 min 0 min 0 W/m 12,9 km/h (3 Bft) 97,87 %
12.11.2021 05:42 2,3 C 1,7 C 0,6 C 96 % 1021,5 hPa 0,0 l/m 0 min 0 min 0 W/m 12,9 km/h (3 Bft) 95,74 %
12.11.2021 05:44 2,3 C 1,7 C 0,6 C 96 % 1021,5 hPa 0,0 l/m 0 min 0 min 0 W/m 22,5 km/h (4 Bft) 97,83 %
12.11.2021 05:46 2,3 C 1,7 C 0,6 C 96 % 1021,5 hPa 0,0 l/m 0 min 0 min 0 W/m 9,7 km/h (2 Bft) 95,74 %
12.11.2021 05:48 2,4 C 1,7 C 1,1 C 96 % 1021,5 hPa 0,0 l/m 0 min 0 min 0 W/m 6,4 km/h (2 Bft) 95,74 %
12.11.2021 05:50 2,4 C 1,7 C 1,1 C 96 % 1021,5 hPa 0,0 l/m 0 min 0 min 0 W/m 6,4 km/h (2 Bft) 95,74 %
12.11.2021 05:52 2,4 C 2,2 C 1,1 C 96 % 1021,5 hPa 0,0 l/m 0 min 0 min 0 W/m 16,1 km/h (3 Bft) 97,87 %
12.11.2021 05:54 2,4 C 2,2 C 1,1 C 96 % 1021,5 hPa 0,0 l/m 0 min 0 min 0 W/m 19,3 km/h (3 Bft) 95,74 %
12.11.2021 05:56 2,5 C 2,2 C 1,1 C 96 % 1021,5 hPa 0,0 l/m 0 min 0 min 0 W/m 16,1 km/h (3 Bft) 97,83 %
12.11.2021 05:58 2,5 C 2,2 C 1,1 C 96 % 1021,5 hPa 0,0 l/m 0 min 0 min 0 W/m 16,1 km/h (3 Bft) 97,87 %
12.11.2021 06:00 2,5 C 2,2 C 1,1 C 96 % 1021,4 hPa 0,0 l/m 0 min 0 min 0 W/m 12,9 km/h (3 Bft) 97,87 %
12.11.2021 06:02 2,6 C 2,2 C 1,1 C 96 % 1021,5 hPa 0,0 l/m 0 min 0 min 0 W/m 12,9 km/h (3 Bft) 97,87 %
12.11.2021 06:04 2,6 C 2,2 C 1,1 C 96 % 1021,5 hPa 0,0 l/m 0 min 0 min 0 W/m 16,1 km/h (3 Bft) 95,83 %
12.11.2021 06:08 2,7 C 2,2 C 1,1 C 96 % 1021,4 hPa 0,0 l/m 0 min 0 min 0 W/m 19,3 km/h (3 Bft) 95,70 %
12.11.2021 06:10 2,7 C 2,2 C 1,1 C 96 % 1021,4 hPa 0,0 l/m 0 min 0 min 0 W/m 12,9 km/h (3 Bft) 95,74 %
12.11.2021 06:12 2,8 C 2,2 C 1,1 C 96 % 1021,3 hPa 0,0 l/m 0 min 0 min 0 W/m 12,9 km/h (3 Bft) 95,74 %
12.11.2021 06:14 2,8 C 2,2 C 1,1 C 96 % 1021,3 hPa 0,0 l/m 0 min 0 min 0 W/m 6,4 km/h (2 Bft) 93,62 %
12.11.2021 06:16 2,8 C 2,2 C 1,1 C 96 % 1021,2 hPa 0,0 l/m 0 min 0 min 0 W/m 12,9 km/h (3 Bft) 97,87 %
12.11.2021 06:18 2,8 C 2,2 C 1,1 C 96 % 1021,3 hPa 0,0 l/m 0 min 0 min 0 W/m 12,9 km/h (3 Bft) 97,83 %
12.11.2021 06:20 2,8 C 2,2 C 1,1 C 96 % 1021,3 hPa 0,0 l/m 0 min 0 min 0 W/m 6,4 km/h (2 Bft) 95,74 %
12.11.2021 06:22 2,9 C 2,2 C 1,1 C 96 % 1021,2 hPa 0,0 l/m 0 min 0 min 0 W/m 16,1 km/h (3 Bft) 97,87 %
12.11.2021 06:24 2,9 C 2,2 C 1,1 C 96 % 1021,2 hPa 0,0 l/m 0 min 0 min 0 W/m 19,3 km/h (3 Bft) 97,87 %
12.11.2021 06:26 2,9 C 2,2 C 1,1 C 96 % 1021,2 hPa 0,0 l/m 0 min 0 min 0 W/m 22,5 km/h (4 Bft) 95,74 %
12.11.2021 06:28 2,9 C 2,2 C 1,1 C 96 % 1021,1 hPa 0,0 l/m 0 min 0 min 0 W/m 12,9 km/h (3 Bft) 95,74 %
12.11.2021 06:30 2,9 C 2,2 C 1,7 C 96 % 1021,1 hPa 0,0 l/m 0 min 0 min 0 W/m 12,9 km/h (3 Bft) 95,65 %
12.11.2021 06:32 2,9 C 2,2 C 1,1 C 97 % 1021,1 hPa 0,0 l/m 0 min 0 min 0 W/m 19,3 km/h (3 Bft) 93,62 %
12.11.2021 06:34 3,0 C 2,2 C 1,7 C 96 % 1021,0 hPa 0,0 l/m 0 min 0 min 0 W/m 16,1 km/h (3 Bft) 95,74 %
12.11.2021 06:36 3,0 C 2,2 C 1,7 C 96 % 1021,0 hPa 0,0 l/m 0 min 0 min 0 W/m 22,5 km/h (4 Bft) 95,74 %
12.11.2021 06:38 3,0 C 2,2 C 1,7 C 96 % 1021,0 hPa 0,0 l/m 0 min 0 min 0 W/m 12,9 km/h (3 Bft) 97,87 %
12.11.2021 06:40 3,0 C 2,2 C 1,7 C 96 % 1020,9 hPa 0,0 l/m 0 min 0 min 0 W/m 16,1 km/h (3 Bft) 97,87 %
12.11.2021 06:42 3,0 C 2,8 C 1,7 C 96 % 1020,9 hPa 0,0 l/m 0 min 0 min 0 W/m 22,5 km/h (4 Bft) 97,83 %
12.11.2021 06:44 3,0 C 2,8 C 1,7 C 96 % 1020,9 hPa 0,0 l/m 0 min 0 min 0 W/m 25,7 km/h (4 Bft) 97,87 %
12.11.2021 06:46 3,0 C 2,8 C 1,7 C 96 % 1020,9 hPa 0,0 l/m 0 min 0 min 0 W/m 22,5 km/h (4 Bft) 97,87 %
12.11.2021 06:48 3,0 C 2,8 C 1,7 C 97 % 1020,8 hPa 0,0 l/m 0 min 0 min 0 W/m 16,1 km/h (3 Bft) 97,87 %
12.11.2021 06:50 3,1 C 2,8 C 1,7 C 97 % 1020,8 hPa 0,0 l/m 0 min 0 min 0 W/m 19,3 km/h (3 Bft) 93,62 %
12.11.2021 06:52 3,1 C 2,8 C 1,7 C 97 % 1020,7 hPa 0,0 l/m 0 min 0 min 0 W/m 16,1 km/h (3 Bft) 97,87 %
12.11.2021 06:54 3,1 C 2,8 C 1,7 C 97 % 1020,6 hPa 0,0 l/m 0 min 0 min 0 W/m 16,1 km/h (3 Bft) 97,83 %
12.11.2021 06:56 3,1 C 2,8 C 1,7 C 97 % 1020,6 hPa 0,0 l/m 0 min 0 min 0 W/m 16,1 km/h (3 Bft) 97,87 %
12.11.2021 06:58 3,1 C 2,8 C 1,7 C 97 % 1020,6 hPa 0,0 l/m 0 min 0 min 0 W/m 22,5 km/h (4 Bft) 97,87 %
12.11.2021 07:00 3,1 C 2,8 C 1,7 C 97 % 1020,6 hPa 0,0 l/m 0 min 0 min 0 W/m 16,1 km/h (3 Bft) 97,87 %
12.11.2021 07:02 3,2 C 2,8 C 1,7 C 97 % 1020,6 hPa 0,0 l/m 0 min 0 min 0 W/m 12,9 km/h (3 Bft) 97,87 %
12.11.2021 07:04 3,2 C 2,8 C 1,7 C 97 % 1020,6 hPa 0,0 l/m 0 min 0 min 0 W/m 6,4 km/h (2 Bft) 100,00 %
12.11.2021 07:06 3,3 C 2,8 C 1,7 C 97 % 1020,5 hPa 0,0 l/m 0 min 0 min 0 W/m 6,4 km/h (2 Bft) 95,65 %
12.11.2021 07:08 3,3 C 2,8 C 1,7 C 97 % 1020,4 hPa 0,0 l/m 0 min 0 min 0 W/m 29,0 km/h (5 Bft) 97,87 %
12.11.2021 07:10 3,3 C 2,8 C 1,7 C 97 % 1020,4 hPa 0,0 l/m 0 min 0 min 0 W/m 16,1 km/h (3 Bft) 97,87 %
12.11.2021 07:12 3,3 C 2,8 C 1,7 C 97 % 1020,4 hPa 0,0 l/m 0 min 0 min 0 W/m 16,1 km/h (3 Bft) 95,74 %
12.11.2021 07:14 3,4 C 2,8 C 2,2 C 97 % 1020,4 hPa 0,0 l/m 0 min 0 min 0 W/m 12,9 km/h (3 Bft) 97,87 %
12.11.2021 07:16 3,4 C 2,8 C 2,2 C 97 % 1020,3 hPa 0,0 l/m 0 min 0 min 0 W/m 19,3 km/h (3 Bft) 100,00 %
12.11.2021 07:18 3,4 C 2,8 C 2,2 C 97 % 1020,3 hPa 0,0 l/m 0 min 0 min 0 W/m 16,1 km/h (3 Bft) 97,83 %
12.11.2021 07:20 3,4 C 2,8 C 2,2 C 97 % 1020,2 hPa 0,0 l/m 0 min 0 min 0 W/m 12,9 km/h (3 Bft) 100,00 %
12.11.2021 07:22 3,4 C 2,8 C 2,2 C 97 % 1020,2 hPa 0,0 l/m 0 min 0 min 0 W/m 19,3 km/h (3 Bft) 100,00 %
12.11.2021 07:24 3,4 C 2,8 C 2,2 C 97 % 1020,1 hPa 0,0 l/m 0 min 0 min 0 W/m 22,5 km/h (4 Bft) 97,87 %
12.11.2021 07:26 3,4 C 2,8 C 2,2 C 97 % 1020,1 hPa 0,0 l/m 0 min 0 min 0 W/m 29,0 km/h (5 Bft) 100,00 %
12.11.2021 07:28 3,4 C 2,8 C 2,2 C 97 % 1020,0 hPa 0,0 l/m 0 min 0 min 0 W/m 16,1 km/h (3 Bft) 100,00 %
12.11.2021 07:30 3,4 C 2,8 C 2,2 C 97 % 1020,0 hPa 0,0 l/m 0 min 0 min 0 W/m 22,5 km/h (4 Bft) 100,00 %
12.11.2021 07:32 3,4 C 2,8 C 2,2 C 97 % 1020,0 hPa 0,0 l/m 0 min 0 min 0 W/m 12,9 km/h (3 Bft) 97,87 %
12.11.2021 07:34 3,4 C 2,8 C 2,2 C 97 % 1019,9 hPa 0,0 l/m 0 min 0 min 0 W/m 19,3 km/h (3 Bft) 100,00 %
12.11.2021 07:36 3,4 C 2,8 C 2,2 C 97 % 1019,8 hPa 0,0 l/m 0 min 0 min 0 W/m 19,3 km/h (3 Bft) 100,00 %
12.11.2021 07:38 3,4 C 2,8 C 2,2 C 97 % 1019,8 hPa 0,0 l/m 0 min 0 min 0 W/m 19,3 km/h (3 Bft) 100,00 %
12.11.2021 07:40 3,4 C 2,8 C 2,2 C 97 % 1019,9 hPa 0,0 l/m 0 min 0 min 0 W/m 19,3 km/h (3 Bft) 97,87 %
12.11.2021 07:42 3,4 C 2,8 C 2,2 C 97 % 1019,8 hPa 0,0 l/m 0 min 0 min 0 W/m 16,1 km/h (3 Bft) 100,00 %
12.11.2021 07:44 3,3 C 2,8 C 2,2 C 97 % 1019,9 hPa 0,0 l/m 0 min 0 min 0 W/m 22,5 km/h (4 Bft) 97,87 %
12.11.2021 07:46 3,3 C 2,8 C 2,2 C 97 % 1019,9 hPa 0,0 l/m 0 min 0 min 0 W/m 29,0 km/h (5 Bft) 100,00 %
12.11.2021 07:48 3,3 C 2,8 C 2,2 C 97 % 1019,9 hPa 0,0 l/m 0 min 0 min 0 W/m 22,5 km/h (4 Bft) 100,00 %
12.11.2021 07:50 3,4 C 2,8 C 2,2 C 97 % 1019,9 hPa 0,0 l/m 0 min 0 min 0 W/m 19,3 km/h (3 Bft) 95,74 %
12.11.2021 07:52 3,4 C 2,8 C 2,2 C 97 % 1019,9 hPa 0,0 l/m 0 min 0 min 0 W/m 22,5 km/h (4 Bft) 100,00 %
12.11.2021 07:54 3,4 C 2,8 C 2,2 C 97 % 1020,0 hPa 0,0 l/m 0 min 0 min 0 W/m 16,1 km/h (3 Bft) 100,00 %
12.11.2021 07:56 3,4 C 2,8 C 2,2 C 97 % 1019,9 hPa 0,0 l/m 0 min 0 min 0 W/m 16,1 km/h (3 Bft) 95,74 %
12.11.2021 07:58 3,4 C 2,8 C 2,2 C 97 % 1020,0 hPa 0,0 l/m 0 min 0 min 5 W/m 16,1 km/h (3 Bft) 97,87 %
12.11.2021 08:00 3,4 C 2,8 C 2,2 C 97 % 1019,9 hPa 0,0 l/m 0 min 0 min 5 W/m 19,3 km/h (3 Bft) 95,74 %
12.11.2021 08:02 3,4 C 2,8 C 2,2 C 97 % 1019,9 hPa 0,0 l/m 0 min 0 min 5 W/m 22,5 km/h (4 Bft) 89,36 %
12.11.2021 08:04 3,4 C 2,8 C 2,2 C 97 % 1019,9 hPa 0,0 l/m 0 min 0 min 6 W/m 29,0 km/h (5 Bft) 95,65 %
12.11.2021 08:06 3,4 C 2,8 C 2,2 C 97 % 1020,0 hPa 0,0 l/m 0 min 0 min 7 W/m 16,1 km/h (3 Bft) 95,74 %
12.11.2021 08:08 3,4 C 2,8 C 2,2 C 97 % 1019,9 hPa 0,0 l/m 0 min 0 min 7 W/m 12,9 km/h (3 Bft) 95,74 %
12.11.2021 08:10 3,4 C 2,8 C 2,2 C 97 % 1019,9 hPa 0,0 l/m 0 min 0 min 8 W/m 22,5 km/h (4 Bft) 93,62 %
12.11.2021 08:12 3,3 C 2,8 C 2,2 C 97 % 1019,9 hPa 0,0 l/m 0 min 0 min 8 W/m 19,3 km/h (3 Bft) 95,74 %
12.11.2021 08:14 3,3 C 2,8 C 2,2 C 97 % 1019,9 hPa 0,0 l/m 0 min 0 min 8 W/m 16,1 km/h (3 Bft) 95,74 %
12.11.2021 08:16 3,3 C 2,8 C 2,2 C 97 % 1019,8 hPa 0,0 l/m 0 min 0 min 7 W/m 19,3 km/h (3 Bft) 95,65 %
12.11.2021 08:18 3,3 C 2,8 C 2,2 C 97 % 1019,7 hPa 0,0 l/m 0 min 0 min 9 W/m 29,0 km/h (5 Bft) 95,74 %
12.11.2021 08:20 3,3 C 2,8 C 2,2 C 97 % 1019,6 hPa 0,0 l/m 0 min 0 min 11 W/m 25,7 km/h (4 Bft) 95,74 %
12.11.2021 08:22 3,3 C 2,8 C 2,2 C 97 % 1019,5 hPa 0,0 l/m 0 min 0 min 10 W/m 25,7 km/h (4 Bft) 95,74 %
12.11.2021 08:24 3,3 C 2,8 C 2,2 C 97 % 1019,5 hPa 0,0 l/m 0 min 0 min 10 W/m 22,5 km/h (4 Bft) 95,74 %
12.11.2021 08:26 3,3 C 2,8 C 2,2 C 97 % 1019,4 hPa 0,0 l/m 0 min 0 min 11 W/m 25,7 km/h (4 Bft) 93,62 %
12.11.2021 08:28 3,3 C 2,8 C 2,2 C 97 % 1019,5 hPa 0,0 l/m 0 min 0 min 12 W/m 19,3 km/h (3 Bft) 95,65 %
12.11.2021 08:30 3,3 C 2,8 C 2,2 C 97 % 1019,5 hPa 0,0 l/m 0 min 0 min 13 W/m 29,0 km/h (5 Bft) 93,62 %
12.11.2021 08:32 3,3 C 2,8 C 2,2 C 97 % 1019,5 hPa 0,0 l/m 0 min 0 min 14 W/m 25,7 km/h (4 Bft) 97,87 %
12.11.2021 08:34 3,3 C 2,8 C 2,2 C 97 % 1019,6 hPa 0,0 l/m 0 min 0 min 16 W/m 22,5 km/h (4 Bft) 97,87 %
12.11.2021 08:36 3,3 C 2,8 C 2,2 C 97 % 1019,7 hPa 0,0 l/m 0 min 0 min 14 W/m 25,7 km/h (4 Bft) 100,00 %
12.11.2021 08:38 3,3 C 2,8 C 2,2 C 97 % 1019,7 hPa 0,0 l/m 0 min 0 min 15 W/m 9,7 km/h (2 Bft) 97,87 %
12.11.2021 08:40 3,3 C 2,8 C 2,2 C 97 % 1019,7 hPa 0,0 l/m 0 min 0 min 15 W/m 12,9 km/h (3 Bft) 97,83 %
12.11.2021 08:42 3,3 C 2,8 C 2,2 C 97 % 1019,8 hPa 0,0 l/m 0 min 0 min 16 W/m 12,9 km/h (3 Bft) 100,00 %
12.11.2021 08:44 3,3 C 3,3 C 2,2 C 97 % 1019,8 hPa 0,0 l/m 0 min 0 min 18 W/m 19,3 km/h (3 Bft) 100,00 %
12.11.2021 08:46 3,4 C 3,3 C 2,2 C 97 % 1019,8 hPa 0,0 l/m 0 min 0 min 20 W/m 16,1 km/h (3 Bft) 100,00 %
12.11.2021 08:48 3,3 C 3,3 C 2,2 C 97 % 1019,9 hPa 0,0 l/m 0 min 0 min 21 W/m 12,9 km/h (3 Bft) 100,00 %
12.11.2021 08:50 3,3 C 3,3 C 2,2 C 97 % 1019,9 hPa 0,0 l/m 0 min 0 min 21 W/m 16,1 km/h (3 Bft) 97,87 %
12.11.2021 08:52 3,3 C 3,3 C 2,2 C 97 % 1019,9 hPa 0,0 l/m 0 min 0 min 21 W/m 12,9 km/h (3 Bft) 100,00 %
12.11.2021 08:54 3,3 C 3,3 C 2,2 C 97 % 1019,9 hPa 0,0 l/m 0 min 0 min 20 W/m 12,9 km/h (3 Bft) 100,00 %
12.11.2021 08:56 3,3 C 3,3 C 2,2 C 97 % 1019,8 hPa 0,0 l/m 0 min 0 min 22 W/m 19,3 km/h (3 Bft) 100,00 %
12.11.2021 08:58 3,4 C 3,3 C 2,2 C 97 % 1019,7 hPa 0,0 l/m 0 min 0 min 29 W/m 19,3 km/h (3 Bft) 100,00 %
12.11.2021 09:00 3,4 C 3,3 C 2,2 C 97 % 1019,7 hPa 0,0 l/m 0 min 0 min 24 W/m 16,1 km/h (3 Bft) 100,00 %
12.11.2021 09:02 3,3 C 3,3 C 2,2 C 97 % 1019,7 hPa 0,0 l/m 0 min 0 min 25 W/m 12,9 km/h (3 Bft) 100,00 %
12.11.2021 09:04 3,4 C 3,3 C 2,2 C 97 % 1019,6 hPa 0,0 l/m 0 min 0 min 25 W/m 19,3 km/h (3 Bft) 97,83 %
12.11.2021 09:06 3,3 C 3,3 C 2,2 C 97 % 1019,5 hPa 0,0 l/m 0 min 0 min 27 W/m 29,0 km/h (5 Bft) 100,00 %
12.11.2021 09:08 3,3 C 3,3 C 2,2 C 97 % 1019,5 hPa 0,0 l/m 0 min 0 min 28 W/m 12,9 km/h (3 Bft) 100,00 %
12.11.2021 09:10 3,3 C 3,3 C 2,2 C 97 % 1019,6 hPa 0,0 l/m 0 min 0 min 29 W/m 19,3 km/h (3 Bft) 100,00 %
12.11.2021 09:12 3,4 C 3,3 C 2,2 C 97 % 1019,7 hPa 0,0 l/m 0 min 0 min 29 W/m 16,1 km/h (3 Bft) 100,00 %
12.11.2021 09:14 3,3 C 3,3 C 2,2 C 97 % 1019,7 hPa 0,0 l/m 0 min 0 min 27 W/m 12,9 km/h (3 Bft) 100,00 %
12.11.2021 09:16 3,3 C 2,8 C 2,2 C 97 % 1019,8 hPa 0,0 l/m 0 min 0 min 26 W/m 22,5 km/h (4 Bft) 100,00 %
12.11.2021 09:18 3,3 C 3,3 C 2,2 C 97 % 1019,7 hPa 0,0 l/m 0 min 0 min 26 W/m 12,9 km/h (3 Bft) 100,00 %
12.11.2021 09:20 3,3 C 3,3 C 2,2 C 97 % 1019,7 hPa 0,0 l/m 0 min 0 min 31 W/m 22,5 km/h (4 Bft) 100,00 %
12.11.2021 09:22 3,3 C 3,3 C 2,2 C 97 % 1019,7 hPa 0,0 l/m 0 min 0 min 34 W/m 16,1 km/h (3 Bft) 100,00 %
12.11.2021 09:24 3,3 C 3,3 C 2,2 C 97 % 1019,8 hPa 0,0 l/m 0 min 0 min 36 W/m 12,9 km/h (3 Bft) 100,00 %
12.11.2021 09:26 3,3 C 3,3 C 2,2 C 97 % 1019,8 hPa 0,0 l/m 0 min 0 min 32 W/m 12,9 km/h (3 Bft) 93,62 %
12.11.2021 09:28 3,3 C 3,3 C 2,2 C 97 % 1019,7 hPa 0,0 l/m 0 min 0 min 29 W/m 12,9 km/h (3 Bft) 97,83 %
12.11.2021 09:30 3,3 C 3,3 C 2,2 C 97 % 1019,7 hPa 0,0 l/m 0 min 0 min 30 W/m 12,9 km/h (3 Bft) 97,87 %
12.11.2021 09:32 3,4 C 3,3 C 2,2 C 97 % 1019,6 hPa 0,0 l/m 0 min 0 min 35 W/m 12,9 km/h (3 Bft) 97,87 %
12.11.2021 09:34 3,4 C 3,3 C 2,2 C 97 % 1019,7 hPa 0,0 l/m 0 min 0 min 37 W/m 19,3 km/h (3 Bft) 97,87 %
12.11.2021 09:36 3,4 C 3,3 C 2,2 C 97 % 1019,8 hPa 0,0 l/m 0 min 0 min 39 W/m 12,9 km/h (3 Bft) 97,87 %
12.11.2021 09:38 3,4 C 3,3 C 2,2 C 97 % 1019,7 hPa 0,0 l/m 0 min 0 min 40 W/m 19,3 km/h (3 Bft) 97,83 %
12.11.2021 09:40 3,4 C 3,3 C 2,2 C 97 % 1019,7 hPa 0,0 l/m 0 min 0 min 41 W/m 12,9 km/h (3 Bft) 97,87 %
12.11.2021 09:42 3,4 C 3,3 C 2,8 C 97 % 1019,7 hPa 0,0 l/m 0 min 0 min 39 W/m 6,4 km/h (2 Bft) 95,74 %
12.11.2021 09:44 3,4 C 3,3 C 2,8 C 97 % 1019,7 hPa 0,0 l/m 0 min 0 min 45 W/m 12,9 km/h (3 Bft) 97,87 %
12.11.2021 09:46 3,5 C 3,3 C 2,8 C 97 % 1019,8 hPa 0,0 l/m 0 min 0 min 45 W/m 6,4 km/h (2 Bft) 95,74 %
12.11.2021 09:48 3,5 C 3,3 C 2,8 C 97 % 1019,8 hPa 0,0 l/m 0 min 0 min 47 W/m 12,9 km/h (3 Bft) 95,74 %
12.11.2021 09:50 3,5 C 3,3 C 2,8 C 97 % 1019,8 hPa 0,0 l/m 0 min 0 min 37 W/m 12,9 km/h (3 Bft) 93,48 %
12.11.2021 09:52 3,5 C 3,3 C 2,8 C 97 % 1019,8 hPa 0,0 l/m 0 min 0 min 34 W/m 12,9 km/h (3 Bft) 97,87 %
12.11.2021 09:54 3,5 C 3,3 C 2,8 C 97 % 1019,7 hPa 0,0 l/m 0 min 0 min 33 W/m 6,4 km/h (2 Bft) 97,87 %
12.11.2021 09:56 3,5 C 3,3 C 2,8 C 97 % 1019,8 hPa 0,0 l/m 0 min 0 min 34 W/m 16,1 km/h (3 Bft) 95,74 %
12.11.2021 09:58 3,5 C 3,3 C 2,8 C 97 % 1019,8 hPa 0,0 l/m 0 min 0 min 38 W/m 12,9 km/h (3 Bft) 95,74 %
12.11.2021 10:00 3,5 C 3,3 C 2,8 C 97 % 1019,7 hPa 0,0 l/m 0 min 0 min 42 W/m 9,7 km/h (2 Bft) 89,36 %
12.11.2021 10:02 3,5 C 3,3 C 2,8 C 97 % 1019,7 hPa 0,0 l/m 0 min 0 min 42 W/m 19,3 km/h (3 Bft) 93,48 %
12.11.2021 10:04 3,5 C 3,3 C 2,8 C 97 % 1019,7 hPa 0,0 l/m 0 min 0 min 46 W/m 12,9 km/h (3 Bft) 95,74 %
12.11.2021 10:06 3,5 C 3,3 C 2,8 C 97 % 1019,6 hPa 0,0 l/m 0 min 0 min 47 W/m 9,7 km/h (2 Bft) 95,74 %
12.11.2021 10:08 3,5 C 3,3 C 2,8 C 97 % 1019,6 hPa 0,0 l/m 0 min 0 min 52 W/m 12,9 km/h (3 Bft) 91,49 %
12.11.2021 10:10 3,5 C 3,3 C 2,8 C 97 % 1019,6 hPa 0,0 l/m 0 min 0 min 57 W/m 12,9 km/h (3 Bft) 93,62 %
12.11.2021 10:12 3,5 C 3,3 C 2,8 C 97 % 1019,6 hPa 0,0 l/m 0 min 0 min 62 W/m 6,4 km/h (2 Bft) 95,74 %
12.11.2021 10:14 3,5 C 3,3 C 2,8 C 97 % 1019,7 hPa 0,0 l/m 0 min 0 min 61 W/m 3,2 km/h (1 Bft) 95,65 %
12.11.2021 10:16 3,5 C 3,3 C 2,8 C 97 % 1019,7 hPa 0,0 l/m 0 min 0 min 63 W/m 6,4 km/h (2 Bft) 95,74 %
12.11.2021 10:18 3,6 C 3,9 C 2,8 C 97 % 1019,6 hPa 0,0 l/m 0 min 0 min 65 W/m 9,7 km/h (2 Bft) 97,87 %
12.11.2021 10:20 3,6 C 3,9 C 2,8 C 97 % 1019,6 hPa 0,0 l/m 0 min 0 min 63 W/m 9,7 km/h (2 Bft) 95,74 %
12.11.2021 10:22 3,6 C 3,9 C 2,8 C 97 % 1019,5 hPa 0,0 l/m 0 min 0 min 65 W/m 12,9 km/h (3 Bft) 93,62 %
12.11.2021 10:24 3,6 C 3,9 C 2,8 C 97 % 1019,5 hPa 0,0 l/m 0 min 0 min 65 W/m 16,1 km/h (3 Bft) 95,74 %
12.11.2021 10:26 3,6 C 3,9 C 2,8 C 97 % 1019,4 hPa 0,0 l/m 0 min 0 min 69 W/m 9,7 km/h (2 Bft) 97,83 %
12.11.2021 10:28 3,7 C 3,9 C 2,8 C 97 % 1019,4 hPa 0,0 l/m 0 min 0 min 79 W/m 9,7 km/h (2 Bft) 95,74 %
12.11.2021 10:30 3,7 C 3,9 C 2,8 C 97 % 1019,4 hPa 0,0 l/m 0 min 0 min 86 W/m 16,1 km/h (3 Bft) 95,74 %
12.11.2021 10:32 3,7 C 3,9 C 2,8 C 97 % 1019,4 hPa 0,0 l/m 0 min 0 min 86 W/m 16,1 km/h (3 Bft) 95,74 %
12.11.2021 10:34 3,7 C 3,9 C 2,8 C 97 % 1019,4 hPa 0,0 l/m 0 min 0 min 83 W/m 19,3 km/h (3 Bft) 97,87 %
12.11.2021 10:36 3,6 C 3,9 C 2,8 C 97 % 1019,3 hPa 0,0 l/m 0 min 0 min 83 W/m 12,9 km/h (3 Bft) 97,87 %
12.11.2021 10:38 3,7 C 3,9 C 2,8 C 97 % 1019,2 hPa 0,0 l/m 0 min 0 min 86 W/m 16,1 km/h (3 Bft) 97,83 %
12.11.2021 10:40 3,6 C 3,9 C 2,8 C 97 % 1019,2 hPa 0,0 l/m 0 min 0 min 89 W/m 19,3 km/h (3 Bft) 97,87 %
12.11.2021 10:42 3,6 C 3,9 C 2,8 C 97 % 1019,1 hPa 0,0 l/m 0 min 0 min 91 W/m 12,9 km/h (3 Bft) 97,87 %
12.11.2021 10:44 3,6 C 3,9 C 2,8 C 97 % 1019,0 hPa 0,0 l/m 0 min 0 min 91 W/m 16,1 km/h (3 Bft) 97,87 %
12.11.2021 10:46 3,7 C 3,9 C 2,8 C 97 % 1018,9 hPa 0,0 l/m 0 min 0 min 88 W/m 16,1 km/h (3 Bft) 100,00 %
12.11.2021 10:48 3,7 C 3,9 C 2,8 C 97 % 1018,8 hPa 0,0 l/m 0 min 0 min 94 W/m 16,1 km/h (3 Bft) 95,74 %
12.11.2021 10:50 3,7 C 3,9 C 2,8 C 97 % 1018,8 hPa 0,0 l/m 0 min 0 min 99 W/m 16,1 km/h (3 Bft) 97,83 %
12.11.2021 10:52 3,7 C 3,9 C 2,8 C 97 % 1018,8 hPa 0,0 l/m 0 min 0 min 110 W/m 16,1 km/h (3 Bft) 97,87 %
12.11.2021 10:54 3,7 C 3,9 C 2,8 C 97 % 1018,7 hPa 0,0 l/m 0 min 0 min 126 W/m 22,5 km/h (4 Bft) 95,74 %
12.11.2021 10:56 3,7 C 3,9 C 2,8 C 97 % 1018,7 hPa 0,0 l/m 0 min 0 min 119 W/m 12,9 km/h (3 Bft) 95,74 %
12.11.2021 10:58 3,7 C 3,9 C 2,8 C 97 % 1018,6 hPa 0,0 l/m 0 min 0 min 112 W/m 16,1 km/h (3 Bft) 97,87 %
12.11.2021 11:00 3,8 C 3,9 C 3,3 C 97 % 1018,6 hPa 0,0 l/m 0 min 0 min 122 W/m 12,9 km/h (3 Bft) 97,87 %
12.11.2021 11:02 3,8 C 4,4 C 3,3 C 97 % 1018,5 hPa 0,0 l/m 0 min 0 min 117 W/m 9,7 km/h (2 Bft) 97,83 %
12.11.2021 11:04 3,9 C 4,4 C 3,3 C 97 % 1018,5 hPa 0,0 l/m 0 min 0 min 116 W/m 19,3 km/h (3 Bft) 100,00 %
12.11.2021 11:06 3,9 C 4,4 C 3,3 C 97 % 1018,5 hPa 0,0 l/m 0 min 0 min 133 W/m 12,9 km/h (3 Bft) 100,00 %
12.11.2021 11:08 3,9 C 4,4 C 3,3 C 97 % 1018,4 hPa 0,0 l/m 0 min 0 min 148 W/m 16,1 km/h (3 Bft) 100,00 %
12.11.2021 11:10 3,9 C 4,4 C 3,3 C 97 % 1018,4 hPa 0,0 l/m 0 min 0 min 139 W/m 16,1 km/h (3 Bft) 100,00 %
12.11.2021 11:12 4,0 C 4,4 C 3,3 C 97 % 1018,3 hPa 0,0 l/m 0 min 0 min 158 W/m 12,9 km/h (3 Bft) 100,00 %
12.11.2021 11:14 4,0 C 4,4 C 3,3 C 97 % 1018,3 hPa 0,0 l/m 0 min 0 min 147 W/m 12,9 km/h (3 Bft) 97,83 %
12.11.2021 11:16 4,0 C 4,4 C 3,3 C 97 % 1018,4 hPa 0,0 l/m 0 min 0 min 159 W/m 12,9 km/h (3 Bft) 100,00 %
12.11.2021 11:18 4,0 C 4,4 C 3,3 C 97 % 1018,5 hPa 0,0 l/m 0 min 0 min 143 W/m 6,4 km/h (2 Bft) 100,00 %
12.11.2021 11:20 4,0 C 4,4 C 3,3 C 97 % 1018,6 hPa 0,0 l/m 0 min 0 min 144 W/m 16,1 km/h (3 Bft) 100,00 %
12.11.2021 11:22 4,1 C 5,0 C 3,3 C 97 % 1018,5 hPa 0,0 l/m 0 min 0 min 166 W/m 16,1 km/h (3 Bft) 100,00 %
12.11.2021 11:24 4,1 C 4,4 C 3,3 C 97 % 1018,5 hPa 0,0 l/m 0 min 0 min 132 W/m 16,1 km/h (3 Bft) 100,00 %
12.11.2021 11:26 4,1 C 5,0 C 3,3 C 97 % 1018,5 hPa 0,0 l/m 0 min 0 min 140 W/m 12,9 km/h (3 Bft) 100,00 %
12.11.2021 11:28 4,1 C 5,0 C 3,3 C 97 % 1018,5 hPa 0,0 l/m 0 min 0 min 164 W/m 12,9 km/h (3 Bft) 100,00 %
12.11.2021 11:30 4,1 C 5,0 C 3,9 C 97 % 1018,6 hPa 0,0 l/m 0 min 0 min 160 W/m 12,9 km/h (3 Bft) 97,87 %
12.11.2021 11:32 4,2 C 5,0 C 3,9 C 97 % 1018,6 hPa 0,0 l/m 0 min 0 min 169 W/m 16,1 km/h (3 Bft) 95,74 %
12.11.2021 11:34 4,2 C 5,0 C 3,9 C 97 % 1018,6 hPa 0,0 l/m 0 min 0 min 154 W/m 6,4 km/h (2 Bft) 100,00 %
12.11.2021 11:36 4,3 C 5,0 C 3,9 C 97 % 1018,5 hPa 0,0 l/m 0 min 0 min 161 W/m 9,7 km/h (2 Bft) 100,00 %
12.11.2021 11:38 4,3 C 5,0 C 3,9 C 97 % 1018,4 hPa 0,0 l/m 0 min 0 min 168 W/m 12,9 km/h (3 Bft) 97,87 %
12.11.2021 11:40 4,3 C 5,0 C 3,9 C 97 % 1018,3 hPa 0,0 l/m 0 min 0 min 153 W/m 16,1 km/h (3 Bft) 100,00 %
12.11.2021 11:42 4,3 C 5,0 C 3,9 C 97 % 1018,3 hPa 0,0 l/m 2 min 0 min 177 W/m 12,9 km/h (3 Bft) 100,00 %
12.11.2021 11:44 4,3 C 5,0 C 3,9 C 97 % 1018,2 hPa 0,0 l/m 0 min 0 min 166 W/m 12,9 km/h (3 Bft) 100,00 %
12.11.2021 11:46 4,4 C 5,0 C 3,9 C 97 % 1018,2 hPa 0,0 l/m 0 min 0 min 170 W/m 12,9 km/h (3 Bft) 100,00 %
12.11.2021 11:48 4,4 C 5,0 C 3,9 C 97 % 1018,2 hPa 0,0 l/m 0 min 0 min 154 W/m 19,3 km/h (3 Bft) 100,00 %
12.11.2021 11:50 4,4 C 5,0 C 3,9 C 97 % 1018,1 hPa 0,0 l/m 0 min 0 min 166 W/m 12,9 km/h (3 Bft) 100,00 %
12.11.2021 11:52 4,4 C 5,0 C 3,9 C 97 % 1018,0 hPa 0,0 l/m 2 min 0 min 186 W/m 19,3 km/h (3 Bft) 100,00 %
12.11.2021 11:54 4,4 C 5,0 C 3,9 C 97 % 1018,0 hPa 0,0 l/m 0 min 0 min 172 W/m 12,9 km/h (3 Bft) 97,87 %
12.11.2021 11:56 4,5 C 5,6 C 3,9 C 97 % 1018,0 hPa 0,0 l/m 0 min 0 min 135 W/m 9,7 km/h (2 Bft) 97,87 %
12.11.2021 11:58 4,5 C 5,6 C 3,9 C 97 % 1018,0 hPa 0,0 l/m 0 min 0 min 174 W/m 12,9 km/h (3 Bft) 97,87 %
12.11.2021 12:00 4,5 C 5,6 C 3,9 C 97 % 1018,0 hPa 0,0 l/m 2 min 0 min 184 W/m 12,9 km/h (3 Bft) 100,00 %
12.11.2021 12:02 4,6 C 5,6 C 3,9 C 97 % 1018,1 hPa 0,0 l/m 2 min 0 min 181 W/m 12,9 km/h (3 Bft) 93,62 %
12.11.2021 12:04 4,6 C 5,6 C 3,9 C 97 % 1018,1 hPa 0,0 l/m 2 min 0 min 197 W/m 16,1 km/h (3 Bft) 95,74 %
12.11.2021 12:06 4,7 C 5,6 C 4,4 C 97 % 1018,0 hPa 0,0 l/m 2 min 0 min 185 W/m 9,7 km/h (2 Bft) 97,87 %
12.11.2021 12:08 4,8 C 6,1 C 4,4 C 97 % 1018,0 hPa 0,0 l/m 0 min 0 min 160 W/m 16,1 km/h (3 Bft) 97,87 %
12.11.2021 12:10 4,8 C 5,6 C 4,4 C 97 % 1018,0 hPa 0,0 l/m 0 min 0 min 126 W/m 12,9 km/h (3 Bft) 95,74 %
12.11.2021 12:12 4,9 C 5,6 C 4,4 C 97 % 1018,0 hPa 0,0 l/m 0 min 0 min 100 W/m 9,7 km/h (2 Bft) 97,83 %
12.11.2021 12:14 4,9 C 5,6 C 4,4 C 97 % 1018,0 hPa 0,0 l/m 0 min 0 min 87 W/m 6,4 km/h (2 Bft) 97,87 %
12.11.2021 12:16 4,9 C 5,6 C 4,4 C 96 % 1017,9 hPa 0,0 l/m 0 min 0 min 95 W/m 12,9 km/h (3 Bft) 93,62 %
12.11.2021 12:18 5,0 C 5,6 C 4,4 C 96 % 1017,9 hPa 0,0 l/m 0 min 0 min 80 W/m 19,3 km/h (3 Bft) 93,62 %
12.11.2021 12:20 5,0 C 5,6 C 4,4 C 96 % 1017,9 hPa 0,0 l/m 0 min 0 min 80 W/m 16,1 km/h (3 Bft) 95,74 %
12.11.2021 12:22 5,0 C 5,6 C 4,4 C 96 % 1017,8 hPa 0,0 l/m 0 min 0 min 80 W/m 12,9 km/h (3 Bft) 95,74 %
12.11.2021 12:24 5,1 C 5,6 C 4,4 C 96 % 1017,9 hPa 0,0 l/m 0 min 0 min 74 W/m 12,9 km/h (3 Bft) 95,65 %
12.11.2021 12:26 5,1 C 5,6 C 4,4 C 96 % 1017,9 hPa 0,0 l/m 0 min 0 min 83 W/m 19,3 km/h (3 Bft) 95,74 %
12.11.2021 12:28 5,1 C 5,6 C 4,4 C 96 % 1017,7 hPa 0,0 l/m 0 min 0 min 65 W/m 16,1 km/h (3 Bft) 95,74 %
12.11.2021 12:30 5,3 C 6,1 C 4,4 C 96 % 1017,6 hPa 0,0 l/m 0 min 0 min 63 W/m 16,1 km/h (3 Bft) 97,87 %
12.11.2021 12:32 5,3 C 6,1 C 4,4 C 96 % 1017,6 hPa 0,0 l/m 0 min 0 min 65 W/m 16,1 km/h (3 Bft) 97,87 %
12.11.2021 12:34 5,3 C 6,1 C 4,4 C 96 % 1017,6 hPa 0,0 l/m 0 min 0 min 71 W/m 16,1 km/h (3 Bft) 95,74 %
12.11.2021 12:36 5,4 C 6,1 C 4,4 C 95 % 1017,7 hPa 0,0 l/m 0 min 0 min 90 W/m 16,1 km/h (3 Bft) 95,65 %
12.11.2021 12:38 5,4 C 6,1 C 4,4 C 96 % 1017,6 hPa 0,0 l/m 0 min 0 min 71 W/m 19,3 km/h (3 Bft) 97,87 %
12.11.2021 12:40 5,5 C 6,1 C 4,4 C 95 % 1017,6 hPa 0,0 l/m 0 min 0 min 80 W/m 9,7 km/h (2 Bft) 97,87 %
12.11.2021 12:42 5,5 C 6,7 C 4,4 C 95 % 1017,6 hPa 0,0 l/m 0 min 0 min 113 W/m 16,1 km/h (3 Bft) 97,87 %
12.11.2021 12:44 5,6 C 7,2 C 4,4 C 95 % 1017,5 hPa 0,0 l/m 0 min 0 min 108 W/m 9,7 km/h (2 Bft) 95,74 %
12.11.2021 12:46 5,7 C 7,2 C 4,4 C 95 % 1017,5 hPa 0,0 l/m 0 min 0 min 107 W/m 16,1 km/h (3 Bft) 95,74 %
12.11.2021 12:48 5,8 C 7,8 C 4,4 C 95 % 1017,5 hPa 0,0 l/m 0 min 0 min 62 W/m 19,3 km/h (3 Bft) 93,48 %
12.11.2021 12:50 5,9 C 8,3 C 4,4 C 95 % 1017,5 hPa 0,0 l/m 0 min 0 min 89 W/m 12,9 km/h (3 Bft) 95,74 %
12.11.2021 12:52 5,9 C 8,3 C 4,4 C 95 % 1017,5 hPa 0,0 l/m 2 min 0 min 195 W/m 25,7 km/h (4 Bft) 95,74 %
12.11.2021 12:54 5,9 C 8,3 C 4,4 C 94 % 1017,5 hPa 0,0 l/m 2 min 0 min 178 W/m 16,1 km/h (3 Bft) 91,49 %
12.11.2021 12:56 6,0 C 8,9 C 4,4 C 94 % 1017,3 hPa 0,0 l/m 2 min 0 min 234 W/m 9,7 km/h (2 Bft) 93,62 %
12.11.2021 12:58 6,1 C 8,9 C 4,4 C 94 % 1017,3 hPa 0,0 l/m 2 min 0 min 339 W/m 12,9 km/h (3 Bft) 95,65 %
12.11.2021 13:00 6,1 C 8,9 C 4,4 C 94 % 1017,2 hPa 0,0 l/m 2 min 0 min 351 W/m 12,9 km/h (3 Bft) 95,74 %
12.11.2021 13:02 6,3 C 8,9 C 4,4 C 93 % 1017,1 hPa 0,0 l/m 2 min 0 min 357 W/m 12,9 km/h (3 Bft) 93,62 %
12.11.2021 13:04 6,4 C 9,4 C 5,0 C 93 % 1017,1 hPa 0,0 l/m 2 min 0 min 358 W/m 9,7 km/h (2 Bft) 95,74 %
12.11.2021 13:06 6,5 C 10,6 C 5,0 C 93 % 1017,1 hPa 0,0 l/m 2 min 0 min 361 W/m 9,7 km/h (2 Bft) 95,74 %
12.11.2021 13:08 6,6 C 11,7 C 5,0 C 93 % 1017,1 hPa 0,0 l/m 2 min 0 min 360 W/m 12,9 km/h (3 Bft) 97,87 %
12.11.2021 13:10 6,8 C 12,2 C 5,0 C 92 % 1017,1 hPa 0,0 l/m 2 min 0 min 360 W/m 16,1 km/h (3 Bft) 97,87 %
12.11.2021 13:12 6,9 C 12,8 C 5,0 C 92 % 1017,0 hPa 0,0 l/m 2 min 0 min 361 W/m 19,3 km/h (3 Bft) 95,65 %
12.11.2021 13:14 6,9 C 12,8 C 5,0 C 92 % 1017,1 hPa 0,0 l/m 2 min 0 min 359 W/m 6,4 km/h (2 Bft) 95,74 %
12.11.2021 13:16 7,1 C 12,2 C 5,0 C 91 % 1017,2 hPa 0,0 l/m 2 min 0 min 360 W/m 9,7 km/h (2 Bft) 100,00 %
12.11.2021 13:18 7,2 C 11,1 C 5,0 C 91 % 1017,1 hPa 0,0 l/m 2 min 0 min 362 W/m 16,1 km/h (3 Bft) 100,00 %
12.11.2021 13:20 7,3 C 11,1 C 5,0 C 90 % 1017,1 hPa 0,0 l/m 2 min 0 min 360 W/m 12,9 km/h (3 Bft) 97,87 %
12.11.2021 13:22 7,4 C 10,6 C 5,0 C 90 % 1017,0 hPa 0,0 l/m 2 min 0 min 354 W/m 16,1 km/h (3 Bft) 97,87 %
12.11.2021 13:24 7,4 C 10,6 C 5,0 C 89 % 1017,1 hPa 0,0 l/m 2 min 0 min 315 W/m 6,4 km/h (2 Bft) 97,83 %
12.11.2021 13:26 7,5 C 10,6 C 5,0 C 89 % 1017,0 hPa 0,0 l/m 2 min 0 min 267 W/m 12,9 km/h (3 Bft) 95,74 %
12.11.2021 13:28 7,5 C 11,1 C 5,6 C 88 % 1016,9 hPa 0,0 l/m 2 min 0 min 311 W/m 16,1 km/h (3 Bft) 100,00 %
12.11.2021 13:30 7,6 C 11,7 C 5,6 C 88 % 1017,0 hPa 0,0 l/m 2 min 0 min 306 W/m 12,9 km/h (3 Bft) 91,49 %
12.11.2021 13:32 7,7 C 11,7 C 5,6 C 88 % 1016,9 hPa 0,0 l/m 2 min 0 min 310 W/m 9,7 km/h (2 Bft) 63,04 %
12.11.2021 13:34 7,8 C 11,7 C 5,6 C 87 % 1016,9 hPa 0,0 l/m 2 min 0 min 327 W/m 12,9 km/h (3 Bft) 100,00 %
12.11.2021 13:36 7,8 C 12,2 C 5,6 C 87 % 1016,8 hPa 0,0 l/m 2 min 0 min 335 W/m 19,3 km/h (3 Bft) 100,00 %
12.11.2021 13:38 7,9 C 12,2 C 5,6 C 87 % 1016,9 hPa 0,0 l/m 2 min 0 min 323 W/m 12,9 km/h (3 Bft) 100,00 %
12.11.2021 13:40 7,9 C 11,7 C 5,6 C 86 % 1016,9 hPa 0,0 l/m 2 min 0 min 333 W/m 16,1 km/h (3 Bft) 100,00 %
12.11.2021 13:42 8,0 C 11,1 C 5,6 C 86 % 1016,8 hPa 0,0 l/m 2 min 0 min 302 W/m 16,1 km/h (3 Bft) 97,87 %
12.11.2021 13:44 8,0 C 10,6 C 5,6 C 86 % 1016,8 hPa 0,0 l/m 2 min 0 min 262 W/m 19,3 km/h (3 Bft) 100,00 %
12.11.2021 13:46 8,0 C 10,0 C 5,6 C 86 % 1016,8 hPa 0,0 l/m 2 min 0 min 281 W/m 22,5 km/h (4 Bft) 100,00 %
12.11.2021 13:48 8,0 C 9,4 C 5,6 C 85 % 1016,8 hPa 0,0 l/m 2 min 0 min 265 W/m 16,1 km/h (3 Bft) 100,00 %
12.11.2021 13:50 8,1 C 9,4 C 5,6 C 85 % 1016,7 hPa 0,0 l/m 2 min 0 min 307 W/m 12,9 km/h (3 Bft) 100,00 %
12.11.2021 13:52 8,1 C 8,9 C 5,6 C 85 % 1016,7 hPa 0,0 l/m 2 min 0 min 296 W/m 16,1 km/h (3 Bft) 100,00 %
12.11.2021 13:54 8,2 C 8,9 C 5,6 C 85 % 1016,6 hPa 0,0 l/m 2 min 0 min 259 W/m 19,3 km/h (3 Bft) 100,00 %
12.11.2021 13:56 8,2 C 9,4 C 5,6 C 85 % 1016,6 hPa 0,0 l/m 2 min 0 min 222 W/m 9,7 km/h (2 Bft) 100,00 %
12.11.2021 13:58 8,3 C 9,4 C 5,6 C 84 % 1016,6 hPa 0,0 l/m 2 min 0 min 216 W/m 9,7 km/h (2 Bft) 100,00 %
12.11.2021 14:00 8,3 C 9,4 C 5,6 C 84 % 1016,6 hPa 0,0 l/m 2 min 0 min 210 W/m 16,1 km/h (3 Bft) 100,00 %
12.11.2021 14:02 8,3 C 9,4 C 5,6 C 84 % 1016,5 hPa 0,0 l/m 2 min 0 min 241 W/m 19,3 km/h (3 Bft) 100,00 %
12.11.2021 14:04 8,3 C 9,4 C 5,6 C 84 % 1016,5 hPa 0,0 l/m 2 min 0 min 240 W/m 6,4 km/h (2 Bft) 100,00 %
12.11.2021 14:06 8,4 C 9,4 C 6,1 C 84 % 1016,4 hPa 0,0 l/m 2 min 0 min 208 W/m 16,1 km/h (3 Bft) 100,00 %
12.11.2021 14:08 8,4 C 9,4 C 6,1 C 84 % 1016,4 hPa 0,0 l/m 2 min 0 min 213 W/m 19,3 km/h (3 Bft) 97,87 %
12.11.2021 14:10 8,4 C 9,4 C 6,1 C 84 % 1016,4 hPa 0,0 l/m 2 min 0 min 186 W/m 19,3 km/h (3 Bft) 95,65 %
12.11.2021 14:12 8,5 C 9,4 C 6,1 C 84 % 1016,3 hPa 0,0 l/m 2 min 0 min 178 W/m 16,1 km/h (3 Bft) 100,00 %
12.11.2021 14:14 8,5 C 9,4 C 6,1 C 84 % 1016,3 hPa 0,0 l/m 2 min 0 min 191 W/m 12,9 km/h (3 Bft) 100,00 %
12.11.2021 14:16 8,5 C 9,4 C 6,1 C 84 % 1016,3 hPa 0,0 l/m 2 min 0 min 192 W/m 22,5 km/h (4 Bft) 100,00 %
12.11.2021 14:18 8,5 C 9,4 C 6,1 C 83 % 1016,2 hPa 0,0 l/m 2 min 0 min 162 W/m 22,5 km/h (4 Bft) 100,00 %
12.11.2021 14:20 8,5 C 9,4 C 6,1 C 83 % 1016,2 hPa 0,0 l/m 2 min 0 min 170 W/m 9,7 km/h (2 Bft) 100,00 %
12.11.2021 14:22 8,5 C 9,4 C 6,1 C 83 % 1016,2 hPa 0,0 l/m 2 min 0 min 198 W/m 12,9 km/h (3 Bft) 100,00 %
12.11.2021 14:24 8,5 C 9,4 C 6,1 C 83 % 1016,1 hPa 0,0 l/m 2 min 0 min 186 W/m 19,3 km/h (3 Bft) 100,00 %
12.11.2021 14:26 8,5 C 9,4 C 6,1 C 83 % 1016,1 hPa 0,0 l/m 2 min 0 min 173 W/m 12,9 km/h (3 Bft) 100,00 %
12.11.2021 14:28 8,5 C 9,4 C 6,1 C 83 % 1016,1 hPa 0,0 l/m 2 min 0 min 170 W/m 12,9 km/h (3 Bft) 100,00 %
12.11.2021 14:30 8,5 C 9,4 C 6,1 C 83 % 1016,1 hPa 0,0 l/m 2 min 0 min 156 W/m 9,7 km/h (2 Bft) 97,87 %
12.11.2021 14:32 8,5 C 8,9 C 6,1 C 83 % 1016,1 hPa 0,0 l/m 2 min 0 min 155 W/m 16,1 km/h (3 Bft) 95,74 %
12.11.2021 14:34 8,5 C 8,9 C 6,1 C 83 % 1016,1 hPa 0,0 l/m 2 min 0 min 149 W/m 16,1 km/h (3 Bft) 97,83 %
12.11.2021 14:36 8,5 C 8,9 C 6,1 C 82 % 1016,1 hPa 0,0 l/m 2 min 0 min 151 W/m 19,3 km/h (3 Bft) 97,87 %
12.11.2021 14:38 8,5 C 8,9 C 6,1 C 82 % 1016,1 hPa 0,0 l/m 2 min 0 min 151 W/m 12,9 km/h (3 Bft) 95,74 %
12.11.2021 14:40 8,6 C 8,9 C 6,1 C 83 % 1016,1 hPa 0,0 l/m 2 min 0 min 154 W/m 12,9 km/h (3 Bft) 97,87 %
12.11.2021 14:42 8,6 C 8,9 C 6,1 C 83 % 1016,1 hPa 0,0 l/m 2 min 0 min 140 W/m 6,4 km/h (2 Bft) 95,74 %
12.11.2021 14:44 8,6 C 8,9 C 6,1 C 83 % 1016,1 hPa 0,0 l/m 2 min 0 min 130 W/m 12,9 km/h (3 Bft) 95,74 %
12.11.2021 14:46 8,6 C 8,9 C 6,1 C 83 % 1016,0 hPa 0,0 l/m 2 min 0 min 122 W/m 12,9 km/h (3 Bft) 97,83 %
12.11.2021 14:48 8,6 C 8,9 C 6,1 C 82 % 1016,1 hPa 0,0 l/m 2 min 0 min 119 W/m 12,9 km/h (3 Bft) 97,87 %
12.11.2021 14:50 8,6 C 8,9 C 6,1 C 82 % 1016,1 hPa 0,0 l/m 2 min 0 min 121 W/m 9,7 km/h (2 Bft) 95,74 %
12.11.2021 14:52 8,6 C 8,9 C 6,1 C 82 % 1016,0 hPa 0,0 l/m 2 min 0 min 121 W/m 6,4 km/h (2 Bft) 95,74 %
12.11.2021 14:54 8,6 C 8,9 C 6,1 C 82 % 1016,0 hPa 0,0 l/m 2 min 0 min 114 W/m 9,7 km/h (2 Bft) 93,62 %
12.11.2021 14:56 8,6 C 8,9 C 6,1 C 82 % 1015,9 hPa 0,0 l/m 2 min 0 min 114 W/m 6,4 km/h (2 Bft) 93,62 %
12.11.2021 14:58 8,6 C 8,3 C 6,1 C 82 % 1015,9 hPa 0,0 l/m 2 min 0 min 117 W/m 12,9 km/h (3 Bft) 93,48 %
12.11.2021 15:00 8,6 C 8,3 C 6,1 C 82 % 1015,8 hPa 0,0 l/m 2 min 0 min 109 W/m 12,9 km/h (3 Bft) 95,74 %
12.11.2021 15:02 8,6 C 8,3 C 6,1 C 82 % 1015,7 hPa 0,0 l/m 0 min 0 min 104 W/m 6,4 km/h (2 Bft) 93,62 %
12.11.2021 15:04 8,6 C 8,3 C 5,6 C 82 % 1015,7 hPa 0,0 l/m 0 min 0 min 103 W/m 12,9 km/h (3 Bft) 95,74 %
12.11.2021 15:06 8,6 C 8,3 C 6,1 C 82 % 1015,6 hPa 0,0 l/m 0 min 0 min 101 W/m 12,9 km/h (3 Bft) 95,74 %
12.11.2021 15:08 8,6 C 8,3 C 5,6 C 82 % 1015,5 hPa 0,0 l/m 0 min 0 min 99 W/m 16,1 km/h (3 Bft) 97,83 %
12.11.2021 15:10 8,6 C 8,3 C 5,6 C 82 % 1015,5 hPa 0,0 l/m 2 min 0 min 100 W/m 12,9 km/h (3 Bft) 95,74 %
12.11.2021 15:12 8,6 C 8,3 C 5,6 C 82 % 1015,5 hPa 0,0 l/m 2 min 0 min 99 W/m 12,9 km/h (3 Bft) 95,74 %
12.11.2021 15:14 8,6 C 8,3 C 5,6 C 82 % 1015,5 hPa 0,0 l/m 2 min 0 min 96 W/m 16,1 km/h (3 Bft) 97,87 %
12.11.2021 15:16 8,5 C 8,3 C 5,6 C 82 % 1015,5 hPa 0,0 l/m 0 min 0 min 93 W/m 16,1 km/h (3 Bft) 95,74 %
12.11.2021 15:18 8,5 C 8,3 C 5,6 C 82 % 1015,4 hPa 0,0 l/m 2 min 0 min 93 W/m 19,3 km/h (3 Bft) 91,49 %
12.11.2021 15:20 8,5 C 8,3 C 5,6 C 82 % 1015,4 hPa 0,0 l/m 2 min 0 min 92 W/m 12,9 km/h (3 Bft) 91,30 %
12.11.2021 15:22 8,5 C 8,3 C 5,6 C 82 % 1015,4 hPa 0,0 l/m 2 min 0 min 88 W/m 6,4 km/h (2 Bft) 93,62 %
12.11.2021 15:24 8,5 C 8,3 C 5,6 C 82 % 1015,3 hPa 0,0 l/m 0 min 0 min 84 W/m 12,9 km/h (3 Bft) 95,74 %
12.11.2021 15:26 8,5 C 8,3 C 5,6 C 82 % 1015,3 hPa 0,0 l/m 0 min 0 min 81 W/m 12,9 km/h (3 Bft) 95,74 %
12.11.2021 15:28 8,5 C 8,3 C 5,6 C 83 % 1015,3 hPa 0,0 l/m 0 min 0 min 79 W/m 12,9 km/h (3 Bft) 95,74 %
12.11.2021 15:30 8,5 C 8,3 C 5,6 C 83 % 1015,2 hPa 0,0 l/m 0 min 0 min 76 W/m 16,1 km/h (3 Bft) 95,74 %
12.11.2021 15:32 8,5 C 8,3 C 5,6 C 83 % 1015,2 hPa 0,0 l/m 0 min 0 min 72 W/m 16,1 km/h (3 Bft) 97,83 %
12.11.2021 15:34 8,5 C 7,8 C 5,6 C 82 % 1015,2 hPa 0,0 l/m 0 min 0 min 70 W/m 6,4 km/h (2 Bft) 97,87 %
12.11.2021 15:36 8,5 C 7,8 C 5,6 C 82 % 1015,1 hPa 0,0 l/m 0 min 0 min 68 W/m 6,4 km/h (2 Bft) 93,62 %
12.11.2021 15:38 8,4 C 7,8 C 5,6 C 83 % 1015,1 hPa 0,0 l/m 0 min 0 min 66 W/m 9,7 km/h (2 Bft) 95,74 %
12.11.2021 15:40 8,4 C 7,8 C 5,6 C 83 % 1015,1 hPa 0,0 l/m 0 min 0 min 63 W/m 12,9 km/h (3 Bft) 97,87 %
12.11.2021 15:42 8,4 C 7,8 C 5,6 C 83 % 1015,0 hPa 0,0 l/m 0 min 0 min 62 W/m 19,3 km/h (3 Bft) 97,87 %
12.11.2021 15:44 8,4 C 7,8 C 5,6 C 83 % 1015,0 hPa 0,0 l/m 0 min 0 min 58 W/m 12,9 km/h (3 Bft) 97,87 %
12.11.2021 15:46 8,4 C 7,8 C 5,6 C 83 % 1014,9 hPa 0,0 l/m 0 min 0 min 56 W/m 16,1 km/h (3 Bft) 97,83 %
12.11.2021 15:48 8,4 C 7,8 C 5,6 C 83 % 1014,9 hPa 0,0 l/m 0 min 0 min 54 W/m 16,1 km/h (3 Bft) 95,74 %
12.11.2021 15:50 8,4 C 7,8 C 5,6 C 83 % 1014,9 hPa 0,0 l/m 0 min 0 min 51 W/m 12,9 km/h (3 Bft) 97,87 %
12.11.2021 15:52 8,4 C 7,8 C 5,6 C 83 % 1014,9 hPa 0,0 l/m 0 min 0 min 48 W/m 12,9 km/h (3 Bft) 97,87 %
12.11.2021 15:54 8,3 C 7,8 C 5,6 C 83 % 1015,0 hPa 0,0 l/m 0 min 0 min 46 W/m 12,9 km/h (3 Bft) 97,87 %
12.11.2021 15:56 8,3 C 7,8 C 5,6 C 83 % 1014,9 hPa 0,0 l/m 0 min 0 min 43 W/m 6,4 km/h (2 Bft) 100,00 %
12.11.2021 15:58 8,3 C 7,8 C 5,6 C 83 % 1014,9 hPa 0,0 l/m 0 min 0 min 41 W/m 6,4 km/h (2 Bft) 100,00 %
12.11.2021 16:00 8,3 C 7,8 C 5,0 C 83 % 1014,8 hPa 0,0 l/m 0 min 0 min 39 W/m 6,4 km/h (2 Bft) 97,87 %
12.11.2021 16:02 8,3 C 7,8 C 5,0 C 83 % 1014,9 hPa 0,0 l/m 0 min 0 min 37 W/m 16,1 km/h (3 Bft) 100,00 %
12.11.2021 16:04 8,3 C 7,8 C 5,0 C 83 % 1014,9 hPa 0,0 l/m 0 min 0 min 34 W/m 16,1 km/h (3 Bft) 100,00 %
12.11.2021 16:06 8,3 C 7,8 C 5,0 C 84 % 1014,8 hPa 0,0 l/m 0 min 0 min 32 W/m 16,1 km/h (3 Bft) 100,00 %
12.11.2021 16:08 8,3 C 7,8 C 5,0 C 84 % 1014,8 hPa 0,0 l/m 0 min 0 min 31 W/m 16,1 km/h (3 Bft) 100,00 %
12.11.2021 16:10 8,3 C 7,8 C 5,0 C 84 % 1014,8 hPa 0,0 l/m 0 min 0 min 30 W/m 12,9 km/h (3 Bft) 100,00 %
12.11.2021 16:12 8,2 C 7,8 C 5,0 C 84 % 1014,8 hPa 0,0 l/m 0 min 0 min 28 W/m 12,9 km/h (3 Bft) 97,87 %
12.11.2021 16:14 8,2 C 7,8 C 5,0 C 84 % 1014,8 hPa 0,0 l/m 0 min 0 min 27 W/m 16,1 km/h (3 Bft) 100,00 %
12.11.2021 16:16 8,2 C 7,8 C 5,0 C 84 % 1014,8 hPa 0,0 l/m 0 min 0 min 26 W/m 12,9 km/h (3 Bft) 100,00 %
12.11.2021 16:18 8,1 C 7,8 C 5,0 C 84 % 1014,8 hPa 0,0 l/m 0 min 0 min 26 W/m 16,1 km/h (3 Bft) 100,00 %
12.11.2021 16:20 8,1 C 7,2 C 5,0 C 84 % 1014,8 hPa 0,0 l/m 0 min 0 min 25 W/m 6,4 km/h (2 Bft) 100,00 %
12.11.2021 16:22 8,1 C 7,2 C 5,0 C 84 % 1014,8 hPa 0,0 l/m 0 min 0 min 23 W/m 6,4 km/h (2 Bft) 100,00 %
12.11.2021 16:24 8,1 C 7,2 C 5,0 C 84 % 1014,7 hPa 0,0 l/m 0 min 0 min 22 W/m 6,4 km/h (2 Bft) 97,87 %
12.11.2021 16:26 8,1 C 7,2 C 5,0 C 84 % 1014,7 hPa 0,0 l/m 0 min 0 min 19 W/m 12,9 km/h (3 Bft) 100,00 %
12.11.2021 16:28 8,1 C 7,2 C 5,0 C 84 % 1014,7 hPa 0,0 l/m 0 min 0 min 18 W/m 12,9 km/h (3 Bft) 100,00 %
12.11.2021 16:30 8,1 C 7,2 C 5,0 C 84 % 1014,8 hPa 0,0 l/m 0 min 0 min 15 W/m 12,9 km/h (3 Bft) 100,00 %
12.11.2021 16:32 8,1 C 7,2 C 5,0 C 84 % 1014,8 hPa 0,0 l/m 0 min 0 min 13 W/m 12,9 km/h (3 Bft) 97,83 %
12.11.2021 16:34 8,1 C 7,2 C 5,0 C 84 % 1014,8 hPa 0,0 l/m 0 min 0 min 12 W/m 6,4 km/h (2 Bft) 100,00 %
12.11.2021 16:36 8,0 C 7,2 C 5,0 C 84 % 1014,8 hPa 0,0 l/m 0 min 0 min 11 W/m 6,4 km/h (2 Bft) 97,87 %
12.11.2021 16:38 8,0 C 7,2 C 5,0 C 84 % 1014,7 hPa 0,0 l/m 0 min 0 min 10 W/m 6,4 km/h (2 Bft) 100,00 %
12.11.2021 16:40 8,0 C 7,2 C 5,0 C 84 % 1014,7 hPa 0,0 l/m 0 min 0 min 9 W/m 12,9 km/h (3 Bft) 100,00 %
12.11.2021 16:42 8,0 C 7,2 C 5,0 C 84 % 1014,7 hPa 0,0 l/m 0 min 0 min 8 W/m 16,1 km/h (3 Bft) 100,00 %
12.11.2021 16:44 7,9 C 7,2 C 5,0 C 84 % 1014,7 hPa 0,0 l/m 0 min 0 min 7 W/m 12,9 km/h (3 Bft) 97,83 %
12.11.2021 16:46 7,9 C 7,2 C 5,0 C 84 % 1014,6 hPa 0,0 l/m 0 min 0 min 6 W/m 16,1 km/h (3 Bft) 97,87 %
12.11.2021 16:48 7,9 C 7,2 C 5,0 C 85 % 1014,6 hPa 0,0 l/m 0 min 0 min 5 W/m 12,9 km/h (3 Bft) 100,00 %
12.11.2021 16:50 7,8 C 7,2 C 5,0 C 85 % 1014,5 hPa 0,0 l/m 0 min 0 min 3 W/m 16,1 km/h (3 Bft) 100,00 %
12.11.2021 16:52 7,8 C 7,2 C 5,0 C 85 % 1014,5 hPa 0,0 l/m 0 min 0 min 0 W/m 16,1 km/h (3 Bft) 100,00 %
12.11.2021 16:54 7,8 C 6,7 C 4,4 C 85 % 1014,5 hPa 0,0 l/m 0 min 0 min 0 W/m 6,4 km/h (2 Bft) 95,74 %
12.11.2021 16:56 7,7 C 6,7 C 4,4 C 85 % 1014,5 hPa 0,0 l/m 0 min 0 min 0 W/m 16,1 km/h (3 Bft) 100,00 %
12.11.2021 16:58 7,7 C 6,7 C 4,4 C 85 % 1014,5 hPa 0,0 l/m 0 min 0 min 0 W/m 16,1 km/h (3 Bft) 97,87 %
12.11.2021 17:00 7,6 C 6,7 C 4,4 C 85 % 1014,5 hPa 0,0 l/m 0 min 0 min 0 W/m 12,9 km/h (3 Bft) 97,87 %
12.11.2021 17:02 7,6 C 6,7 C 4,4 C 85 % 1014,5 hPa 0,0 l/m 0 min 0 min 0 W/m 12,9 km/h (3 Bft) 97,87 %
12.11.2021 17:04 7,6 C 6,7 C 4,4 C 85 % 1014,5 hPa 0,0 l/m 0 min 0 min 0 W/m 12,9 km/h (3 Bft) 97,87 %
12.11.2021 17:06 7,5 C 6,7 C 4,4 C 85 % 1014,5 hPa 0,0 l/m 0 min 0 min 0 W/m 12,9 km/h (3 Bft) 95,74 %
12.11.2021 17:08 7,5 C 6,7 C 4,4 C 85 % 1014,5 hPa 0,0 l/m 0 min 0 min 0 W/m 16,1 km/h (3 Bft) 95,65 %
12.11.2021 17:10 7,5 C 6,7 C 4,4 C 85 % 1014,5 hPa 0,0 l/m 0 min 0 min 0 W/m 12,9 km/h (3 Bft) 95,74 %
12.11.2021 17:12 7,5 C 6,7 C 4,4 C 85 % 1014,6 hPa 0,0 l/m 0 min 0 min 0 W/m 16,1 km/h (3 Bft) 95,74 %
12.11.2021 17:14 7,4 C 6,7 C 4,4 C 86 % 1014,5 hPa 0,0 l/m 0 min 0 min 0 W/m 16,1 km/h (3 Bft) 93,62 %
12.11.2021 17:16 7,4 C 6,7 C 4,4 C 86 % 1014,6 hPa 0,0 l/m 0 min 0 min 0 W/m 12,9 km/h (3 Bft) 93,62 %
12.11.2021 17:18 7,4 C 6,7 C 4,4 C 86 % 1014,5 hPa 0,0 l/m 0 min 0 min 0 W/m 19,3 km/h (3 Bft) 95,74 %
12.11.2021 17:20 7,3 C 6,7 C 4,4 C 86 % 1014,6 hPa 0,0 l/m 0 min 0 min 0 W/m 12,9 km/h (3 Bft) 93,48 %
12.11.2021 17:22 7,3 C 6,7 C 4,4 C 86 % 1014,6 hPa 0,0 l/m 0 min 0 min 0 W/m 16,1 km/h (3 Bft) 95,74 %
12.11.2021 17:24 7,3 C 6,7 C 4,4 C 86 % 1014,5 hPa 0,0 l/m 0 min 0 min 0 W/m 16,1 km/h (3 Bft) 95,74 %
12.11.2021 17:26 7,3 C 6,7 C 4,4 C 86 % 1014,5 hPa 0,0 l/m 0 min 0 min 0 W/m 12,9 km/h (3 Bft) 93,62 %
12.11.2021 17:28 7,2 C 6,7 C 4,4 C 86 % 1014,5 hPa 0,0 l/m 0 min 0 min 0 W/m 29,0 km/h (5 Bft) 95,74 %
12.11.2021 17:30 7,1 C 6,7 C 4,4 C 86 % 1014,4 hPa 0,0 l/m 0 min 0 min 0 W/m 16,1 km/h (3 Bft) 95,65 %
12.11.2021 17:32 7,1 C 6,1 C 4,4 C 86 % 1014,4 hPa 0,0 l/m 0 min 0 min 0 W/m 16,1 km/h (3 Bft) 93,62 %
12.11.2021 17:34 7,1 C 6,1 C 4,4 C 86 % 1014,3 hPa 0,0 l/m 0 min 0 min 0 W/m 19,3 km/h (3 Bft) 95,74 %
12.11.2021 17:36 7,1 C 6,1 C 4,4 C 86 % 1014,3 hPa 0,0 l/m 0 min 0 min 0 W/m 19,3 km/h (3 Bft) 95,74 %
12.11.2021 17:38 7,0 C 6,1 C 3,9 C 86 % 1014,3 hPa 0,0 l/m 0 min 0 min 0 W/m 29,0 km/h (5 Bft) 95,74 %
12.11.2021 17:40 7,0 C 6,1 C 3,9 C 86 % 1014,2 hPa 0,0 l/m 0 min 0 min 0 W/m 19,3 km/h (3 Bft) 95,74 %
12.11.2021 17:42 7,0 C 6,1 C 3,9 C 86 % 1014,2 hPa 0,0 l/m 0 min 0 min 0 W/m 16,1 km/h (3 Bft) 95,65 %
12.11.2021 17:44 6,9 C 6,1 C 3,9 C 86 % 1014,1 hPa 0,0 l/m 0 min 0 min 0 W/m 22,5 km/h (4 Bft) 95,74 %
12.11.2021 17:46 6,9 C 6,1 C 3,9 C 86 % 1014,1 hPa 0,0 l/m 0 min 0 min 0 W/m 16,1 km/h (3 Bft) 95,74 %
12.11.2021 17:48 6,9 C 6,1 C 3,9 C 86 % 1014,1 hPa 0,0 l/m 0 min 0 min 0 W/m 16,1 km/h (3 Bft) 93,62 %
12.11.2021 17:50 6,9 C 6,1 C 3,9 C 86 % 1014,1 hPa 0,0 l/m 0 min 0 min 0 W/m 16,1 km/h (3 Bft) 95,74 %
12.11.2021 17:52 6,8 C 6,1 C 3,9 C 86 % 1014,0 hPa 0,0 l/m 0 min 0 min 0 W/m 19,3 km/h (3 Bft) 95,74 %
12.11.2021 17:54 6,8 C 6,1 C 3,9 C 86 % 1014,0 hPa 0,0 l/m 0 min 0 min 0 W/m 19,3 km/h (3 Bft) 95,65 %
12.11.2021 17:56 6,8 C 6,1 C 3,9 C 86 % 1014,0 hPa 0,0 l/m 0 min 0 min 0 W/m 19,3 km/h (3 Bft) 95,74 %
12.11.2021 17:58 6,7 C 6,1 C 3,9 C 86 % 1014,0 hPa 0,0 l/m 0 min 0 min 0 W/m 22,5 km/h (4 Bft) 95,74 %
12.11.2021 18:00 6,7 C 6,1 C 3,9 C 86 % 1013,9 hPa 0,0 l/m 0 min 0 min 0 W/m 19,3 km/h (3 Bft) 95,74 %
12.11.2021 18:02 6,7 C 6,1 C 3,9 C 86 % 1013,9 hPa 0,0 l/m 0 min 0 min 0 W/m 19,3 km/h (3 Bft) 97,87 %
12.11.2021 18:04 6,6 C 6,1 C 3,9 C 86 % 1014,0 hPa 0,0 l/m 0 min 0 min 0 W/m 19,3 km/h (3 Bft) 95,83 %
12.11.2021 18:08 6,6 C 6,1 C 3,9 C 87 % 1014,0 hPa 0,0 l/m 0 min 0 min 0 W/m 19,3 km/h (3 Bft) 97,85 %
12.11.2021 18:10 6,5 C 6,1 C 3,9 C 87 % 1013,9 hPa 0,0 l/m 0 min 0 min 0 W/m 19,3 km/h (3 Bft) 97,87 %
12.11.2021 18:12 6,5 C 6,1 C 3,9 C 86 % 1013,9 hPa 0,0 l/m 0 min 0 min 0 W/m 16,1 km/h (3 Bft) 100,00 %
12.11.2021 18:14 6,5 C 5,6 C 3,3 C 86 % 1013,9 hPa 0,0 l/m 0 min 0 min 0 W/m 16,1 km/h (3 Bft) 100,00 %
12.11.2021 18:16 6,5 C 5,6 C 3,3 C 87 % 1013,9 hPa 0,0 l/m 0 min 0 min 0 W/m 19,3 km/h (3 Bft) 100,00 %
12.11.2021 18:18 6,5 C 5,6 C 3,3 C 87 % 1013,9 hPa 0,0 l/m 0 min 0 min 0 W/m 29,0 km/h (5 Bft) 97,83 %
12.11.2021 18:20 6,4 C 5,6 C 3,3 C 87 % 1013,8 hPa 0,0 l/m 0 min 0 min 0 W/m 19,3 km/h (3 Bft) 100,00 %
12.11.2021 18:22 6,4 C 5,6 C 3,3 C 87 % 1013,8 hPa 0,0 l/m 0 min 0 min 0 W/m 12,9 km/h (3 Bft) 100,00 %
12.11.2021 18:24 6,4 C 5,6 C 3,3 C 87 % 1013,8 hPa 0,0 l/m 0 min 0 min 0 W/m 19,3 km/h (3 Bft) 100,00 %
12.11.2021 18:26 6,4 C 5,6 C 3,3 C 87 % 1013,7 hPa 0,0 l/m 0 min 0 min 0 W/m 9,7 km/h (2 Bft) 100,00 %
12.11.2021 18:28 6,4 C 5,6 C 3,3 C 87 % 1013,7 hPa 0,0 l/m 0 min 0 min 0 W/m 12,9 km/h (3 Bft) 95,74 %
12.11.2021 18:30 6,4 C 5,6 C 3,3 C 87 % 1013,8 hPa 0,0 l/m 0 min 0 min 0 W/m 19,3 km/h (3 Bft) 100,00 %
12.11.2021 18:32 6,4 C 5,6 C 3,3 C 87 % 1013,8 hPa 0,0 l/m 0 min 0 min 0 W/m 9,7 km/h (2 Bft) 100,00 %
12.11.2021 18:34 6,3 C 5,6 C 3,3 C 87 % 1013,8 hPa 0,0 l/m 0 min 0 min 0 W/m 16,1 km/h (3 Bft) 100,00 %
12.11.2021 18:36 6,3 C 5,6 C 3,3 C 87 % 1013,9 hPa 0,0 l/m 0 min 0 min 0 W/m 19,3 km/h (3 Bft) 100,00 %
12.11.2021 18:38 6,3 C 5,6 C 3,3 C 87 % 1013,8 hPa 0,0 l/m 0 min 0 min 0 W/m 16,1 km/h (3 Bft) 97,87 %
12.11.2021 18:40 6,3 C 5,6 C 3,3 C 87 % 1013,8 hPa 0,0 l/m 0 min 0 min 0 W/m 19,3 km/h (3 Bft) 100,00 %
12.11.2021 18:42 6,2 C 5,6 C 3,3 C 87 % 1013,9 hPa 0,0 l/m 0 min 0 min 0 W/m 29,0 km/h (5 Bft) 97,83 %
12.11.2021 18:44 6,2 C 5,6 C 3,3 C 87 % 1013,9 hPa 0,0 l/m 0 min 0 min 0 W/m 19,3 km/h (3 Bft) 100,00 %
12.11.2021 18:46 6,1 C 5,6 C 3,3 C 87 % 1013,9 hPa 0,0 l/m 0 min 0 min 0 W/m 16,1 km/h (3 Bft) 97,87 %
12.11.2021 18:48 6,1 C 5,6 C 3,3 C 87 % 1013,9 hPa 0,0 l/m 0 min 0 min 0 W/m 19,3 km/h (3 Bft) 95,74 %
12.11.2021 18:50 6,1 C 5,6 C 3,3 C 87 % 1013,7 hPa 0,0 l/m 0 min 0 min 0 W/m 16,1 km/h (3 Bft) 97,87 %
12.11.2021 18:52 6,1 C 5,6 C 3,3 C 87 % 1013,7 hPa 0,0 l/m 0 min 0 min 0 W/m 16,1 km/h (3 Bft) 97,87 %
12.11.2021 18:54 6,1 C 5,6 C 3,3 C 87 % 1013,7 hPa 0,0 l/m 0 min 0 min 0 W/m 16,1 km/h (3 Bft) 97,83 %
12.11.2021 18:56 6,0 C 5,6 C 3,3 C 88 % 1013,7 hPa 0,0 l/m 0 min 0 min 0 W/m 19,3 km/h (3 Bft) 97,87 %
12.11.2021 18:58 6,0 C 5,6 C 3,3 C 87 % 1013,7 hPa 0,0 l/m 0 min 0 min 0 W/m 25,7 km/h (4 Bft) 95,74 %
12.11.2021 19:00 6,0 C 5,6 C 3,3 C 87 % 1013,7 hPa 0,0 l/m 0 min 0 min 0 W/m 19,3 km/h (3 Bft) 95,74 %
12.11.2021 19:02 6,0 C 5,6 C 3,3 C 87 % 1013,7 hPa 0,0 l/m 0 min 0 min 0 W/m 19,3 km/h (3 Bft) 97,87 %
12.11.2021 19:04 6,0 C 5,6 C 3,3 C 88 % 1013,6 hPa 0,0 l/m 0 min 0 min 0 W/m 12,9 km/h (3 Bft) 97,87 %
12.11.2021 19:06 5,9 C 5,0 C 3,3 C 88 % 1013,6 hPa 0,0 l/m 0 min 0 min 0 W/m 19,3 km/h (3 Bft) 95,65 %
12.11.2021 19:08 5,9 C 5,0 C 2,8 C 88 % 1013,6 hPa 0,0 l/m 0 min 0 min 0 W/m 12,9 km/h (3 Bft) 95,74 %
12.11.2021 19:10 5,9 C 5,0 C 2,8 C 88 % 1013,6 hPa 0,0 l/m 0 min 0 min 0 W/m 12,9 km/h (3 Bft) 97,87 %
12.11.2021 19:12 5,9 C 5,0 C 2,8 C 88 % 1013,6 hPa 0,0 l/m 0 min 0 min 0 W/m 19,3 km/h (3 Bft) 97,87 %
12.11.2021 19:14 5,8 C 5,0 C 2,8 C 88 % 1013,7 hPa 0,0 l/m 0 min 0 min 0 W/m 16,1 km/h (3 Bft) 95,74 %
12.11.2021 19:16 5,8 C 5,0 C 2,8 C 88 % 1013,7 hPa 0,0 l/m 0 min 0 min 0 W/m 19,3 km/h (3 Bft) 97,87 %
12.11.2021 19:18 5,8 C 5,0 C 2,8 C 88 % 1013,7 hPa 0,0 l/m 0 min 0 min 0 W/m 25,7 km/h (4 Bft) 97,83 %
12.11.2021 19:20 5,8 C 5,0 C 2,8 C 88 % 1013,8 hPa 0,0 l/m 0 min 0 min 0 W/m 25,7 km/h (4 Bft) 97,87 %
12.11.2021 19:22 5,7 C 5,0 C 2,8 C 88 % 1013,9 hPa 0,0 l/m 0 min 0 min 0 W/m 25,7 km/h (4 Bft) 100,00 %
12.11.2021 19:24 5,7 C 5,0 C 2,8 C 88 % 1013,8 hPa 0,0 l/m 0 min 0 min 0 W/m 12,9 km/h (3 Bft) 100,00 %
12.11.2021 19:26 5,7 C 5,0 C 2,8 C 88 % 1013,7 hPa 0,0 l/m 0 min 0 min 0 W/m 19,3 km/h (3 Bft) 95,74 %
12.11.2021 19:28 5,6 C 5,0 C 2,8 C 88 % 1013,6 hPa 0,0 l/m 0 min 0 min 0 W/m 19,3 km/h (3 Bft) 97,87 %
12.11.2021 19:30 5,6 C 5,0 C 2,8 C 88 % 1013,6 hPa 0,0 l/m 0 min 0 min 0 W/m 16,1 km/h (3 Bft) 100,00 %
12.11.2021 19:32 5,6 C 5,0 C 2,8 C 88 % 1013,6 hPa 0,0 l/m 0 min 0 min 0 W/m 19,3 km/h (3 Bft) 100,00 %
12.11.2021 19:34 5,5 C 5,0 C 2,8 C 88 % 1013,7 hPa 0,0 l/m 0 min 0 min 0 W/m 16,1 km/h (3 Bft) 98,31 %
12.11.2021 19:36 5,5 C 5,0 C 2,8 C 89 % 1013,7 hPa 0,0 l/m 0 min 0 min 0 W/m 16,1 km/h (3 Bft) 100,00 %
12.11.2021 19:38 5,5 C 5,0 C 2,8 C 89 % 1013,7 hPa 0,0 l/m 0 min 0 min 0 W/m 25,7 km/h (4 Bft) 100,00 %
12.11.2021 19:40 5,5 C 5,0 C 2,8 C 89 % 1013,7 hPa 0,0 l/m 0 min 0 min 0 W/m 19,3 km/h (3 Bft) 97,87 %
12.11.2021 19:42 5,5 C 5,0 C 2,8 C 89 % 1013,7 hPa 0,0 l/m 0 min 0 min 0 W/m 6,4 km/h (2 Bft) 97,14 %
12.11.2021 19:44 5,5 C 5,0 C 2,8 C 89 % 1013,7 hPa 0,0 l/m 0 min 0 min 0 W/m 12,9 km/h (3 Bft) 100,00 %
12.11.2021 19:46 5,5 C 5,0 C 2,8 C 89 % 1013,7 hPa 0,0 l/m 0 min 0 min 0 W/m 19,3 km/h (3 Bft) 98,31 %
12.11.2021 19:48 5,5 C 5,0 C 2,8 C 89 % 1013,7 hPa 0,0 l/m 0 min 0 min 0 W/m 22,5 km/h (4 Bft) 97,14 %
12.11.2021 19:50 5,5 C 5,0 C 2,8 C 89 % 1013,9 hPa 0,0 l/m 0 min 0 min 0 W/m 22,5 km/h (4 Bft) 98,31 %
12.11.2021 19:52 5,4 C 5,0 C 2,8 C 89 % 1013,9 hPa 0,0 l/m 0 min 0 min 0 W/m 12,9 km/h (3 Bft) 97,83 %
12.11.2021 19:54 5,4 C 5,0 C 2,8 C 89 % 1013,9 hPa 0,0 l/m 0 min 0 min 0 W/m 16,1 km/h (3 Bft) 100,00 %
12.11.2021 19:56 5,4 C 5,0 C 2,8 C 89 % 1013,9 hPa 0,0 l/m 0 min 0 min 0 W/m 19,3 km/h (3 Bft) 96,55 %
12.11.2021 19:58 5,4 C 5,0 C 2,8 C 89 % 1013,8 hPa 0,0 l/m 0 min 0 min 0 W/m 9,7 km/h (2 Bft) 97,14 %
12.11.2021 20:00 5,4 C 5,0 C 2,8 C 89 % 1013,9 hPa 0,0 l/m 0 min 0 min 0 W/m 12,9 km/h (3 Bft) 97,87 %
12.11.2021 20:02 5,4 C 5,0 C 2,8 C 89 % 1013,8 hPa 0,0 l/m 0 min 0 min 0 W/m 29,0 km/h (5 Bft) 98,31 %
12.11.2021 20:04 5,4 C 5,0 C 2,8 C 89 % 1013,9 hPa 0,0 l/m 0 min 0 min 0 W/m 19,3 km/h (3 Bft) 94,29 %
12.11.2021 20:06 5,3 C 5,0 C 2,8 C 89 % 1013,9 hPa 0,0 l/m 0 min 0 min 0 W/m 12,9 km/h (3 Bft) 98,28 %
12.11.2021 20:08 5,3 C 4,4 C 2,8 C 89 % 1013,9 hPa 0,0 l/m 0 min 0 min 0 W/m 9,7 km/h (2 Bft) 97,87 %
12.11.2021 20:10 5,3 C 4,4 C 2,8 C 89 % 1013,8 hPa 0,0 l/m 0 min 0 min 0 W/m 16,1 km/h (3 Bft) 97,87 %
12.11.2021 20:12 5,3 C 4,4 C 2,8 C 89 % 1013,8 hPa 0,0 l/m 0 min 0 min 0 W/m 19,3 km/h (3 Bft) 95,74 %
12.11.2021 20:14 5,3 C 4,4 C 2,8 C 89 % 1013,8 hPa 0,0 l/m 0 min 0 min 0 W/m 16,1 km/h (3 Bft) 94,29 %
12.11.2021 20:16 5,3 C 4,4 C 2,8 C 89 % 1013,8 hPa 0,0 l/m 0 min 0 min 0 W/m 19,3 km/h (3 Bft) 95,74 %
12.11.2021 20:18 5,3 C 4,4 C 2,8 C 89 % 1013,9 hPa 0,0 l/m 0 min 0 min 0 W/m 16,1 km/h (3 Bft) 94,83 %
12.11.2021 20:20 5,3 C 4,4 C 2,8 C 89 % 1013,9 hPa 0,0 l/m 0 min 0 min 0 W/m 19,3 km/h (3 Bft) 97,14 %
12.11.2021 20:22 5,2 C 4,4 C 2,8 C 89 % 1014,0 hPa 0,0 l/m 0 min 0 min 0 W/m 22,5 km/h (4 Bft) 93,62 %
12.11.2021 20:24 5,2 C 4,4 C 2,8 C 89 % 1013,9 hPa 0,0 l/m 0 min 0 min 0 W/m 25,7 km/h (4 Bft) 91,53 %
12.11.2021 20:26 5,2 C 4,4 C 2,8 C 90 % 1013,9 hPa 0,0 l/m 0 min 0 min 0 W/m 16,1 km/h (3 Bft) 95,74 %
12.11.2021 20:28 5,2 C 4,4 C 2,8 C 90 % 1013,9 hPa 0,0 l/m 0 min 0 min 0 W/m 19,3 km/h (3 Bft) 94,29 %
12.11.2021 20:30 5,1 C 4,4 C 2,8 C 90 % 1013,9 hPa 0,0 l/m 0 min 0 min 0 W/m 9,7 km/h (2 Bft) 95,74 %
12.11.2021 20:32 5,1 C 4,4 C 2,8 C 90 % 1013,9 hPa 0,0 l/m 0 min 0 min 0 W/m 16,1 km/h (3 Bft) 95,65 %
12.11.2021 20:34 5,1 C 4,4 C 2,8 C 90 % 1013,9 hPa 0,0 l/m 0 min 0 min 0 W/m 12,9 km/h (3 Bft) 95,74 %
12.11.2021 20:36 5,1 C 4,4 C 2,8 C 90 % 1013,9 hPa 0,0 l/m 0 min 0 min 0 W/m 9,7 km/h (2 Bft) 95,74 %
12.11.2021 20:38 5,1 C 4,4 C 2,2 C 90 % 1013,9 hPa 0,0 l/m 0 min 0 min 0 W/m 12,9 km/h (3 Bft) 98,31 %
12.11.2021 20:40 5,1 C 4,4 C 2,2 C 90 % 1013,9 hPa 0,0 l/m 0 min 0 min 0 W/m 12,9 km/h (3 Bft) 94,29 %
12.11.2021 20:42 5,1 C 4,4 C 2,2 C 90 % 1013,9 hPa 0,0 l/m 0 min 0 min 0 W/m 12,9 km/h (3 Bft) 93,62 %
12.11.2021 20:44 5,1 C 4,4 C 2,2 C 90 % 1013,8 hPa 0,0 l/m 0 min 0 min 0 W/m 19,3 km/h (3 Bft) 97,83 %
12.11.2021 20:46 5,0 C 4,4 C 2,2 C 90 % 1013,8 hPa 0,0 l/m 0 min 0 min 0 W/m 16,1 km/h (3 Bft) 93,62 %
12.11.2021 20:48 5,0 C 4,4 C 2,2 C 90 % 1013,8 hPa 0,0 l/m 0 min 0 min 0 W/m 12,9 km/h (3 Bft) 95,74 %
12.11.2021 20:50 5,0 C 4,4 C 2,2 C 90 % 1013,9 hPa 0,0 l/m 0 min 0 min 0 W/m 12,9 km/h (3 Bft) 93,62 %
12.11.2021 20:52 5,0 C 4,4 C 2,2 C 90 % 1013,9 hPa 0,0 l/m 0 min 0 min 0 W/m 12,9 km/h (3 Bft) 95,74 %
12.11.2021 20:54 5,0 C 4,4 C 2,2 C 90 % 1013,8 hPa 0,0 l/m 0 min 0 min 0 W/m 6,4 km/h (2 Bft) 97,83 %
12.11.2021 20:56 5,0 C 4,4 C 2,2 C 90 % 1013,8 hPa 0,0 l/m 0 min 0 min 0 W/m 6,4 km/h (2 Bft) 95,74 %
12.11.2021 20:58 5,0 C 4,4 C 2,2 C 90 % 1013,8 hPa 0,0 l/m 0 min 0 min 0 W/m 16,1 km/h (3 Bft) 95,74 %
12.11.2021 21:00 4,9 C 4,4 C 2,2 C 90 % 1013,9 hPa 0,0 l/m 0 min 0 min 0 W/m 19,3 km/h (3 Bft) 93,62 %
12.11.2021 21:02 4,9 C 4,4 C 2,2 C 90 % 1013,8 hPa 0,0 l/m 0 min 0 min 0 W/m 12,9 km/h (3 Bft) 97,87 %
12.11.2021 21:04 4,9 C 4,4 C 2,2 C 90 % 1013,8 hPa 0,0 l/m 0 min 0 min 0 W/m 9,7 km/h (2 Bft) 97,87 %
12.11.2021 21:06 4,9 C 4,4 C 2,2 C 90 % 1013,9 hPa 0,0 l/m 0 min 0 min 0 W/m 12,9 km/h (3 Bft) 93,48 %
12.11.2021 21:08 5,0 C 4,4 C 2,2 C 90 % 1013,9 hPa 0,0 l/m 0 min 0 min 0 W/m 9,7 km/h (2 Bft) 98,31 %
12.11.2021 21:10 5,0 C 4,4 C 2,8 C 90 % 1013,8 hPa 0,0 l/m 0 min 0 min 0 W/m 9,7 km/h (2 Bft) 97,14 %
12.11.2021 21:12 5,0 C 4,4 C 2,8 C 90 % 1013,8 hPa 0,0 l/m 0 min 0 min 0 W/m 16,1 km/h (3 Bft) 97,87 %
12.11.2021 21:14 5,0 C 4,4 C 2,8 C 90 % 1014,0 hPa 0,0 l/m 0 min 0 min 0 W/m 19,3 km/h (3 Bft) 100,00 %
12.11.2021 21:16 5,0 C 4,4 C 2,8 C 90 % 1013,8 hPa 0,0 l/m 0 min 0 min 0 W/m 16,1 km/h (3 Bft) 100,00 %
12.11.2021 21:18 5,0 C 4,4 C 2,8 C 90 % 1013,9 hPa 0,0 l/m 0 min 0 min 0 W/m 22,5 km/h (4 Bft) 97,83 %
12.11.2021 21:20 5,0 C 4,4 C 2,8 C 90 % 1013,7 hPa 0,0 l/m 0 min 0 min 0 W/m 12,9 km/h (3 Bft) 100,00 %
12.11.2021 21:22 5,0 C 4,4 C 2,8 C 90 % 1013,7 hPa 0,0 l/m 0 min 0 min 0 W/m 16,1 km/h (3 Bft) 100,00 %
12.11.2021 21:24 5,1 C 5,0 C 2,8 C 90 % 1013,7 hPa 0,0 l/m 0 min 0 min 0 W/m 16,1 km/h (3 Bft) 100,00 %
12.11.2021 21:26 5,1 C 5,0 C 2,8 C 90 % 1013,7 hPa 0,0 l/m 0 min 0 min 0 W/m 19,3 km/h (3 Bft) 100,00 %
12.11.2021 21:28 5,1 C 5,0 C 2,8 C 90 % 1013,8 hPa 0,0 l/m 0 min 0 min 0 W/m 12,9 km/h (3 Bft) 100,00 %
12.11.2021 21:30 5,1 C 5,0 C 2,8 C 90 % 1013,7 hPa 0,0 l/m 0 min 0 min 0 W/m 12,9 km/h (3 Bft) 100,00 %
12.11.2021 21:32 5,1 C 5,0 C 2,8 C 90 % 1013,7 hPa 0,0 l/m 0 min 0 min 0 W/m 12,9 km/h (3 Bft) 100,00 %
12.11.2021 21:34 5,1 C 5,0 C 2,8 C 90 % 1013,7 hPa 0,0 l/m 0 min 0 min 0 W/m 9,7 km/h (2 Bft) 100,00 %
12.11.2021 21:36 5,2 C 5,0 C 2,8 C 90 % 1013,6 hPa 0,0 l/m 0 min 0 min 0 W/m 12,9 km/h (3 Bft) 100,00 %
12.11.2021 21:38 5,2 C 5,0 C 2,8 C 90 % 1013,6 hPa 0,0 l/m 0 min 0 min 0 W/m 16,1 km/h (3 Bft) 100,00 %
12.11.2021 21:40 5,2 C 5,0 C 2,8 C 90 % 1013,5 hPa 0,0 l/m 0 min 0 min 0 W/m 12,9 km/h (3 Bft) 100,00 %
12.11.2021 21:42 5,3 C 5,0 C 2,8 C 90 % 1013,5 hPa 0,0 l/m 0 min 0 min 0 W/m 6,4 km/h (2 Bft) 100,00 %
12.11.2021 21:44 5,3 C 5,0 C 2,8 C 90 % 1013,5 hPa 0,0 l/m 0 min 0 min 0 W/m 16,1 km/h (3 Bft) 100,00 %
12.11.2021 21:46 5,3 C 5,0 C 2,8 C 90 % 1013,5 hPa 0,0 l/m 0 min 0 min 0 W/m 6,4 km/h (2 Bft) 100,00 %
12.11.2021 21:48 5,3 C 5,0 C 2,8 C 90 % 1013,4 hPa 0,0 l/m 0 min 0 min 0 W/m 16,1 km/h (3 Bft) 100,00 %
12.11.2021 21:50 5,3 C 5,0 C 2,8 C 90 % 1013,4 hPa 0,0 l/m 0 min 0 min 0 W/m 12,9 km/h (3 Bft) 100,00 %
12.11.2021 21:52 5,3 C 5,0 C 2,8 C 90 % 1013,4 hPa 0,0 l/m 0 min 0 min 0 W/m 16,1 km/h (3 Bft) 97,87 %
12.11.2021 21:54 5,4 C 5,0 C 2,8 C 90 % 1013,4 hPa 0,0 l/m 0 min 0 min 0 W/m 12,9 km/h (3 Bft) 100,00 %
12.11.2021 21:56 5,4 C 5,0 C 2,8 C 90 % 1013,6 hPa 0,0 l/m 0 min 0 min 0 W/m 6,4 km/h (2 Bft) 100,00 %
12.11.2021 21:58 5,4 C 5,0 C 2,8 C 90 % 1013,6 hPa 0,0 l/m 0 min 0 min 0 W/m 12,9 km/h (3 Bft) 100,00 %
12.11.2021 22:00 5,4 C 5,0 C 2,8 C 90 % 1013,6 hPa 0,0 l/m 0 min 0 min 0 W/m 16,1 km/h (3 Bft) 100,00 %
12.11.2021 22:02 5,4 C 5,0 C 2,8 C 90 % 1013,6 hPa 0,0 l/m 0 min 0 min 0 W/m 12,9 km/h (3 Bft) 97,87 %
12.11.2021 22:04 5,4 C 5,0 C 2,8 C 90 % 1013,6 hPa 0,0 l/m 0 min 0 min 0 W/m 12,9 km/h (3 Bft) 100,00 %
12.11.2021 22:06 5,5 C 5,0 C 2,8 C 90 % 1013,7 hPa 0,0 l/m 0 min 0 min 0 W/m 9,7 km/h (2 Bft) 97,83 %
12.11.2021 22:08 5,5 C 5,0 C 2,8 C 90 % 1013,6 hPa 0,0 l/m 0 min 0 min 0 W/m 12,9 km/h (3 Bft) 100,00 %
12.11.2021 22:10 5,5 C 5,0 C 2,8 C 90 % 1013,7 hPa 0,0 l/m 0 min 0 min 0 W/m 16,1 km/h (3 Bft) 95,74 %
12.11.2021 22:12 5,5 C 5,0 C 2,8 C 90 % 1013,7 hPa 0,0 l/m 0 min 0 min 0 W/m 12,9 km/h (3 Bft) 95,74 %
12.11.2021 22:14 5,5 C 5,0 C 2,8 C 90 % 1013,7 hPa 0,0 l/m 0 min 0 min 0 W/m 12,9 km/h (3 Bft) 97,87 %
12.11.2021 22:16 5,5 C 5,0 C 2,8 C 90 % 1013,7 hPa 0,0 l/m 0 min 0 min 0 W/m 12,9 km/h (3 Bft) 100,00 %
12.11.2021 22:18 5,5 C 5,0 C 3,3 C 90 % 1013,6 hPa 0,0 l/m 0 min 0 min 0 W/m 16,1 km/h (3 Bft) 100,00 %
12.11.2021 22:20 5,5 C 5,0 C 3,3 C 90 % 1013,6 hPa 0,0 l/m 0 min 0 min 0 W/m 12,9 km/h (3 Bft) 95,74 %
12.11.2021 22:22 5,6 C 5,0 C 3,3 C 90 % 1013,7 hPa 0,0 l/m 0 min 0 min 0 W/m 16,1 km/h (3 Bft) 97,87 %
12.11.2021 22:24 5,6 C 5,0 C 3,3 C 90 % 1013,6 hPa 0,0 l/m 0 min 0 min 0 W/m 12,9 km/h (3 Bft) 95,74 %
12.11.2021 22:26 5,6 C 5,0 C 3,3 C 90 % 1013,6 hPa 0,0 l/m 0 min 0 min 0 W/m 12,9 km/h (3 Bft) 95,74 %
12.11.2021 22:28 5,6 C 5,0 C 3,3 C 90 % 1013,5 hPa 0,0 l/m 0 min 0 min 0 W/m 6,4 km/h (2 Bft) 95,65 %
12.11.2021 22:30 5,6 C 5,0 C 3,3 C 90 % 1013,5 hPa 0,0 l/m 0 min 0 min 0 W/m 16,1 km/h (3 Bft) 97,87 %
12.11.2021 22:32 5,6 C 5,0 C 3,3 C 90 % 1013,4 hPa 0,0 l/m 0 min 0 min 0 W/m 16,1 km/h (3 Bft) 95,74 %
12.11.2021 22:34 5,6 C 5,0 C 3,3 C 90 % 1013,4 hPa 0,0 l/m 0 min 0 min 0 W/m 19,3 km/h (3 Bft) 95,74 %
12.11.2021 22:38 5,7 C 5,0 C 3,3 C 90 % 1013,4 hPa 0,0 l/m 0 min 0 min 0 W/m 12,9 km/h (3 Bft) 96,30 %
12.11.2021 22:40 5,7 C 5,0 C 3,3 C 90 % 1013,3 hPa 0,0 l/m 0 min 0 min 0 W/m 16,1 km/h (3 Bft) 94,29 %
12.11.2021 22:42 5,7 C 5,0 C 3,3 C 90 % 1013,4 hPa 0,0 l/m 0 min 0 min 0 W/m 16,1 km/h (3 Bft) 95,74 %
12.11.2021 22:44 5,7 C 5,0 C 3,3 C 90 % 1013,3 hPa 0,0 l/m 0 min 0 min 0 W/m 6,4 km/h (2 Bft) 95,74 %
12.11.2021 22:46 5,7 C 5,6 C 3,3 C 90 % 1013,2 hPa 0,0 l/m 0 min 0 min 0 W/m 16,1 km/h (3 Bft) 95,74 %
12.11.2021 22:48 5,8 C 5,6 C 3,3 C 90 % 1013,2 hPa 0,0 l/m 0 min 0 min 0 W/m 12,9 km/h (3 Bft) 95,74 %
12.11.2021 22:50 5,7 C 5,6 C 3,3 C 90 % 1013,3 hPa 0,0 l/m 0 min 0 min 0 W/m 12,9 km/h (3 Bft) 95,74 %
12.11.2021 22:52 5,8 C 5,6 C 3,3 C 90 % 1013,2 hPa 0,0 l/m 0 min 0 min 0 W/m 6,4 km/h (2 Bft) 93,48 %
12.11.2021 22:54 5,8 C 5,6 C 3,3 C 90 % 1013,2 hPa 0,0 l/m 0 min 0 min 0 W/m 12,9 km/h (3 Bft) 95,74 %
12.11.2021 22:56 5,8 C 5,6 C 3,3 C 90 % 1013,2 hPa 0,0 l/m 0 min 0 min 0 W/m 12,9 km/h (3 Bft) 97,87 %
12.11.2021 22:58 5,8 C 5,0 C 3,3 C 90 % 1013,1 hPa 0,0 l/m 0 min 0 min 0 W/m 19,3 km/h (3 Bft) 95,74 %
12.11.2021 23:00 5,8 C 5,0 C 2,8 C 90 % 1013,1 hPa 0,0 l/m 0 min 0 min 0 W/m 16,1 km/h (3 Bft) 95,74 %
12.11.2021 23:02 5,8 C 5,0 C 2,8 C 90 % 1013,0 hPa 0,0 l/m 0 min 0 min 0 W/m 12,9 km/h (3 Bft) 97,87 %
12.11.2021 23:04 5,8 C 5,0 C 2,8 C 90 % 1013,0 hPa 0,0 l/m 0 min 0 min 0 W/m 6,4 km/h (2 Bft) 95,65 %
12.11.2021 23:06 5,8 C 5,0 C 2,8 C 90 % 1012,8 hPa 0,0 l/m 0 min 0 min 0 W/m 19,3 km/h (3 Bft) 95,74 %
12.11.2021 23:08 5,8 C 5,0 C 2,8 C 90 % 1012,8 hPa 0,0 l/m 0 min 0 min 0 W/m 16,1 km/h (3 Bft) 100,00 %
12.11.2021 23:10 5,8 C 5,0 C 2,8 C 90 % 1012,7 hPa 0,0 l/m 0 min 0 min 0 W/m 12,9 km/h (3 Bft) 100,00 %
12.11.2021 23:12 5,8 C 5,0 C 2,8 C 90 % 1012,7 hPa 0,0 l/m 0 min 0 min 0 W/m 19,3 km/h (3 Bft) 97,87 %
12.11.2021 23:14 5,8 C 5,0 C 2,8 C 91 % 1012,7 hPa 0,0 l/m 0 min 0 min 0 W/m 16,1 km/h (3 Bft) 97,87 %
12.11.2021 23:16 5,8 C 5,0 C 2,8 C 91 % 1012,7 hPa 0,0 l/m 0 min 0 min 0 W/m 12,9 km/h (3 Bft) 95,65 %
12.11.2021 23:18 5,8 C 5,0 C 2,8 C 91 % 1012,8 hPa 0,0 l/m 0 min 0 min 0 W/m 12,9 km/h (3 Bft) 97,87 %
12.11.2021 23:20 5,8 C 5,0 C 2,8 C 91 % 1012,8 hPa 0,0 l/m 0 min 0 min 0 W/m 6,4 km/h (2 Bft) 97,87 %
12.11.2021 23:22 5,8 C 5,0 C 2,8 C 91 % 1012,8 hPa 0,0 l/m 0 min 0 min 0 W/m 16,1 km/h (3 Bft) 95,74 %
12.11.2021 23:24 5,8 C 5,0 C 2,8 C 91 % 1012,8 hPa 0,0 l/m 0 min 0 min 0 W/m 6,4 km/h (2 Bft) 97,87 %
12.11.2021 23:26 5,8 C 5,0 C 3,3 C 91 % 1012,7 hPa 0,0 l/m 0 min 0 min 0 W/m 16,1 km/h (3 Bft) 97,87 %
12.11.2021 23:28 5,8 C 5,0 C 3,3 C 91 % 1012,8 hPa 0,0 l/m 0 min 0 min 0 W/m 6,4 km/h (2 Bft) 97,83 %
12.11.2021 23:30 5,8 C 5,0 C 3,3 C 91 % 1012,8 hPa 0,0 l/m 0 min 0 min 0 W/m 16,1 km/h (3 Bft) 97,87 %
12.11.2021 23:32 5,8 C 5,0 C 3,3 C 91 % 1012,8 hPa 0,0 l/m 0 min 0 min 0 W/m 12,9 km/h (3 Bft) 97,87 %
12.11.2021 23:34 5,8 C 5,0 C 3,3 C 91 % 1012,8 hPa 0,0 l/m 0 min 0 min 0 W/m 6,4 km/h (2 Bft) 97,87 %
12.11.2021 23:36 5,8 C 5,0 C 3,3 C 91 % 1012,9 hPa 0,0 l/m 0 min 0 min 0 W/m 6,4 km/h (2 Bft) 97,87 %
12.11.2021 23:38 5,8 C 5,0 C 3,3 C 91 % 1012,8 hPa 0,0 l/m 0 min 0 min 0 W/m 16,1 km/h (3 Bft) 95,65 %
12.11.2021 23:40 5,8 C 5,0 C 3,3 C 91 % 1012,8 hPa 0,0 l/m 0 min 0 min 0 W/m 6,4 km/h (2 Bft) 97,87 %
12.11.2021 23:42 5,8 C 5,0 C 3,3 C 91 % 1012,8 hPa 0,0 l/m 0 min 0 min 0 W/m 12,9 km/h (3 Bft) 97,87 %
12.11.2021 23:44 5,8 C 5,0 C 2,8 C 91 % 1012,8 hPa 0,0 l/m 0 min 0 min 0 W/m 6,4 km/h (2 Bft) 97,87 %
12.11.2021 23:46 5,8 C 5,0 C 2,8 C 91 % 1012,7 hPa 0,0 l/m 0 min 0 min 0 W/m 12,9 km/h (3 Bft) 97,87 %
12.11.2021 23:48 5,8 C 5,0 C 2,8 C 91 % 1012,7 hPa 0,0 l/m 0 min 0 min 0 W/m 12,9 km/h (3 Bft) 97,87 %
12.11.2021 23:50 5,8 C 5,0 C 2,8 C 91 % 1012,7 hPa 0,0 l/m 0 min 0 min 0 W/m 12,9 km/h (3 Bft) 97,83 %
12.11.2021 23:52 5,7 C 5,0 C 2,8 C 91 % 1012,6 hPa 0,0 l/m 0 min 0 min 0 W/m 16,1 km/h (3 Bft) 97,87 %
12.11.2021 23:54 5,6 C 5,0 C 2,8 C 91 % 1012,5 hPa 0,0 l/m 0 min 0 min 0 W/m 12,9 km/h (3 Bft) 97,87 %
12.11.2021 23:56 5,6 C 5,0 C 2,8 C 92 % 1012,5 hPa 0,0 l/m 0 min 0 min 0 W/m 12,9 km/h (3 Bft) 95,74 %
12.11.2021 23:58 5,6 C 5,0 C 2,8 C 92 % 1012,4 hPa 0,0 l/m 0 min 0 min 0 W/m 9,7 km/h (2 Bft) 97,87 %
_ Min-Zeit 04:44 04:16 04:34 14:36 23:58 - - - - 00:02 00:02
Minimum _ 1,7 C 1,1 C 0,0 C 82 % 1012,4 hPa - - - - 0,0 km/h (0 Bft) 9,09 %
_ Max-Zeit 14:40 13:12 14:06 06:32 00:00 05:24 11:42 00:00 13:18 07:08 00:04
Maximum _ 8,6 C 12,8 C 6,1 C 97 % 1023,6 hPa 0,2 l/m 2 min 0 min 362 W/m 29,0 km/h
SO (5 Bft)
100,00 %
Durchschnitt _ 4,8 C 4,6 C 2,8 C 92 % 1017,9 hPa #0,2 l/m #2:34 h #0 min. 110 W/m 13,1 km/h (3 Bft) 97,25 %
© 2021 W. Hausmann